<?xml version="1.0" encoding="UTF-8" standalone="no" ?>
<gpx xmlns="http://www.topografix.com/GPX/1/1" xmlns:xsi="http://www.w3.org/2001/XMLSchema-instance" xsi:schemaLocation="http://www.topografix.com/GPX/1/1 http://www.topografix.com/GPX/1/1/gpx.xsd" version="1.1" creator="VisuGPX - https://www.visugpx.com">
  <metadata>
    <name>Rando Ste Croix du Mont</name>
    <desc><![CDATA[Circuit de l'après-midi]]></desc>
  </metadata>
  <trk>
    <name><![CDATA[Tracé 17 avr. 2016 1:49:11 PM]]></name>
    <trkseg>
      <trkpt lat="44.59374" lon="-0.2826">
        <ele>30</ele>
        <time>2016-04-17T11:49:11Z</time>
      </trkpt>
      <trkpt lat="44.59374" lon="-0.2826">
        <ele>30</ele>
        <time>2016-04-17T11:49:25Z</time>
      </trkpt>
      <trkpt lat="44.59374" lon="-0.28244">
        <ele>28</ele>
        <time>2016-04-17T11:49:30Z</time>
      </trkpt>
      <trkpt lat="44.59374" lon="-0.28244">
        <ele>28</ele>
        <time>2016-04-17T11:49:41Z</time>
      </trkpt>
      <trkpt lat="44.59371" lon="-0.28229">
        <ele>28</ele>
        <time>2016-04-17T11:49:45Z</time>
      </trkpt>
      <trkpt lat="44.59371" lon="-0.28229">
        <ele>28</ele>
        <time>2016-04-17T11:49:59Z</time>
      </trkpt>
      <trkpt lat="44.59371" lon="-0.28211">
        <ele>27</ele>
        <time>2016-04-17T11:50:03Z</time>
      </trkpt>
      <trkpt lat="44.59371" lon="-0.28211">
        <ele>27</ele>
        <time>2016-04-17T11:50:10Z</time>
      </trkpt>
      <trkpt lat="44.5937" lon="-0.28194">
        <ele>27</ele>
        <time>2016-04-17T11:50:14Z</time>
      </trkpt>
      <trkpt lat="44.59365" lon="-0.28184">
        <ele>27</ele>
        <time>2016-04-17T11:50:21Z</time>
      </trkpt>
      <trkpt lat="44.59358" lon="-0.28166">
        <ele>29</ele>
        <time>2016-04-17T11:50:26Z</time>
      </trkpt>
      <trkpt lat="44.59356" lon="-0.28156">
        <ele>29</ele>
        <time>2016-04-17T11:50:34Z</time>
      </trkpt>
      <trkpt lat="44.59354" lon="-0.28149">
        <ele>29</ele>
        <time>2016-04-17T11:50:44Z</time>
      </trkpt>
      <trkpt lat="44.59355" lon="-0.28138">
        <ele>29</ele>
        <time>2016-04-17T11:50:51Z</time>
      </trkpt>
      <trkpt lat="44.59344" lon="-0.28132">
        <ele>29</ele>
        <time>2016-04-17T11:50:56Z</time>
      </trkpt>
      <trkpt lat="44.59339" lon="-0.28123">
        <ele>29</ele>
        <time>2016-04-17T11:51:03Z</time>
      </trkpt>
      <trkpt lat="44.59334" lon="-0.28115">
        <ele>30</ele>
        <time>2016-04-17T11:51:08Z</time>
      </trkpt>
      <trkpt lat="44.59328" lon="-0.28106">
        <ele>30</ele>
        <time>2016-04-17T11:51:14Z</time>
      </trkpt>
      <trkpt lat="44.59323" lon="-0.28098">
        <ele>30</ele>
        <time>2016-04-17T11:51:20Z</time>
      </trkpt>
      <trkpt lat="44.59317" lon="-0.28089">
        <ele>31</ele>
        <time>2016-04-17T11:51:27Z</time>
      </trkpt>
      <trkpt lat="44.59313" lon="-0.28079">
        <ele>31</ele>
        <time>2016-04-17T11:51:35Z</time>
      </trkpt>
      <trkpt lat="44.59309" lon="-0.28069">
        <ele>31</ele>
        <time>2016-04-17T11:51:42Z</time>
      </trkpt>
      <trkpt lat="44.59306" lon="-0.28059">
        <ele>31</ele>
        <time>2016-04-17T11:51:49Z</time>
      </trkpt>
      <trkpt lat="44.59304" lon="-0.28048">
        <ele>32</ele>
        <time>2016-04-17T11:52:02Z</time>
      </trkpt>
      <trkpt lat="44.59301" lon="-0.28037">
        <ele>32</ele>
        <time>2016-04-17T11:52:07Z</time>
      </trkpt>
      <trkpt lat="44.59297" lon="-0.28027">
        <ele>32</ele>
        <time>2016-04-17T11:52:15Z</time>
      </trkpt>
      <trkpt lat="44.5929" lon="-0.28018">
        <ele>32</ele>
        <time>2016-04-17T11:52:21Z</time>
      </trkpt>
      <trkpt lat="44.59287" lon="-0.28007">
        <ele>33</ele>
        <time>2016-04-17T11:52:29Z</time>
      </trkpt>
      <trkpt lat="44.59284" lon="-0.27995">
        <ele>32</ele>
        <time>2016-04-17T11:52:36Z</time>
      </trkpt>
      <trkpt lat="44.5928" lon="-0.27984">
        <ele>32</ele>
        <time>2016-04-17T11:52:44Z</time>
      </trkpt>
      <trkpt lat="44.59274" lon="-0.27975">
        <ele>33</ele>
        <time>2016-04-17T11:52:51Z</time>
      </trkpt>
      <trkpt lat="44.59268" lon="-0.27967">
        <ele>33</ele>
        <time>2016-04-17T11:52:58Z</time>
      </trkpt>
      <trkpt lat="44.59267" lon="-0.27963">
        <ele>33</ele>
        <time>2016-04-17T11:53:23Z</time>
      </trkpt>
      <trkpt lat="44.5926" lon="-0.27946">
        <ele>32</ele>
        <time>2016-04-17T11:53:28Z</time>
      </trkpt>
      <trkpt lat="44.59257" lon="-0.27936">
        <ele>32</ele>
        <time>2016-04-17T11:53:34Z</time>
      </trkpt>
      <trkpt lat="44.59254" lon="-0.27926">
        <ele>32</ele>
        <time>2016-04-17T11:53:40Z</time>
      </trkpt>
      <trkpt lat="44.59249" lon="-0.27915">
        <ele>31</ele>
        <time>2016-04-17T11:53:47Z</time>
      </trkpt>
      <trkpt lat="44.59246" lon="-0.27906">
        <ele>31</ele>
        <time>2016-04-17T11:53:54Z</time>
      </trkpt>
      <trkpt lat="44.59242" lon="-0.27897">
        <ele>30</ele>
        <time>2016-04-17T11:54:00Z</time>
      </trkpt>
      <trkpt lat="44.59238" lon="-0.27886">
        <ele>30</ele>
        <time>2016-04-17T11:54:07Z</time>
      </trkpt>
      <trkpt lat="44.59237" lon="-0.27875">
        <ele>30</ele>
        <time>2016-04-17T11:54:15Z</time>
      </trkpt>
      <trkpt lat="44.59234" lon="-0.27864">
        <ele>30</ele>
        <time>2016-04-17T11:54:22Z</time>
      </trkpt>
      <trkpt lat="44.5923" lon="-0.27854">
        <ele>29</ele>
        <time>2016-04-17T11:54:29Z</time>
      </trkpt>
      <trkpt lat="44.59227" lon="-0.27843">
        <ele>29</ele>
        <time>2016-04-17T11:54:37Z</time>
      </trkpt>
      <trkpt lat="44.59224" lon="-0.27832">
        <ele>29</ele>
        <time>2016-04-17T11:54:45Z</time>
      </trkpt>
      <trkpt lat="44.59219" lon="-0.27822">
        <ele>29</ele>
        <time>2016-04-17T11:54:53Z</time>
      </trkpt>
      <trkpt lat="44.59214" lon="-0.27812">
        <ele>29</ele>
        <time>2016-04-17T11:55:01Z</time>
      </trkpt>
      <trkpt lat="44.59209" lon="-0.27803">
        <ele>29</ele>
        <time>2016-04-17T11:55:08Z</time>
      </trkpt>
      <trkpt lat="44.59205" lon="-0.27794">
        <ele>29</ele>
        <time>2016-04-17T11:55:14Z</time>
      </trkpt>
      <trkpt lat="44.592" lon="-0.27784">
        <ele>29</ele>
        <time>2016-04-17T11:55:20Z</time>
      </trkpt>
      <trkpt lat="44.59196" lon="-0.27774">
        <ele>29</ele>
        <time>2016-04-17T11:55:26Z</time>
      </trkpt>
      <trkpt lat="44.59192" lon="-0.27765">
        <ele>29</ele>
        <time>2016-04-17T11:55:32Z</time>
      </trkpt>
      <trkpt lat="44.59187" lon="-0.27756">
        <ele>29</ele>
        <time>2016-04-17T11:55:39Z</time>
      </trkpt>
      <trkpt lat="44.59184" lon="-0.27745">
        <ele>29</ele>
        <time>2016-04-17T11:55:46Z</time>
      </trkpt>
      <trkpt lat="44.59179" lon="-0.27736">
        <ele>29</ele>
        <time>2016-04-17T11:55:53Z</time>
      </trkpt>
      <trkpt lat="44.59174" lon="-0.27726">
        <ele>29</ele>
        <time>2016-04-17T11:55:59Z</time>
      </trkpt>
      <trkpt lat="44.59169" lon="-0.27717">
        <ele>29</ele>
        <time>2016-04-17T11:56:05Z</time>
      </trkpt>
      <trkpt lat="44.59164" lon="-0.27707">
        <ele>29</ele>
        <time>2016-04-17T11:56:12Z</time>
      </trkpt>
      <trkpt lat="44.59159" lon="-0.27697">
        <ele>28</ele>
        <time>2016-04-17T11:56:19Z</time>
      </trkpt>
      <trkpt lat="44.59156" lon="-0.27687">
        <ele>28</ele>
        <time>2016-04-17T11:56:26Z</time>
      </trkpt>
      <trkpt lat="44.59152" lon="-0.27677">
        <ele>28</ele>
        <time>2016-04-17T11:56:32Z</time>
      </trkpt>
      <trkpt lat="44.59148" lon="-0.27667">
        <ele>27</ele>
        <time>2016-04-17T11:56:38Z</time>
      </trkpt>
      <trkpt lat="44.59144" lon="-0.27657">
        <ele>26</ele>
        <time>2016-04-17T11:56:44Z</time>
      </trkpt>
      <trkpt lat="44.5914" lon="-0.27646">
        <ele>25</ele>
        <time>2016-04-17T11:56:51Z</time>
      </trkpt>
      <trkpt lat="44.5914" lon="-0.27639">
        <ele>24</ele>
        <time>2016-04-17T11:57:05Z</time>
      </trkpt>
      <trkpt lat="44.59143" lon="-0.27623">
        <ele>23</ele>
        <time>2016-04-17T11:57:09Z</time>
      </trkpt>
      <trkpt lat="44.59147" lon="-0.27614">
        <ele>23</ele>
        <time>2016-04-17T11:57:17Z</time>
      </trkpt>
      <trkpt lat="44.59153" lon="-0.27605">
        <ele>23</ele>
        <time>2016-04-17T11:57:24Z</time>
      </trkpt>
      <trkpt lat="44.59159" lon="-0.27596">
        <ele>23</ele>
        <time>2016-04-17T11:57:31Z</time>
      </trkpt>
      <trkpt lat="44.59163" lon="-0.27587">
        <ele>23</ele>
        <time>2016-04-17T11:57:37Z</time>
      </trkpt>
      <trkpt lat="44.59167" lon="-0.27576">
        <ele>22</ele>
        <time>2016-04-17T11:57:43Z</time>
      </trkpt>
      <trkpt lat="44.5917" lon="-0.27565">
        <ele>22</ele>
        <time>2016-04-17T11:57:50Z</time>
      </trkpt>
      <trkpt lat="44.5917" lon="-0.27553">
        <ele>22</ele>
        <time>2016-04-17T11:57:56Z</time>
      </trkpt>
      <trkpt lat="44.59169" lon="-0.2754">
        <ele>21</ele>
        <time>2016-04-17T11:58:03Z</time>
      </trkpt>
      <trkpt lat="44.59167" lon="-0.27529">
        <ele>21</ele>
        <time>2016-04-17T11:58:10Z</time>
      </trkpt>
      <trkpt lat="44.59164" lon="-0.27518">
        <ele>20</ele>
        <time>2016-04-17T11:58:16Z</time>
      </trkpt>
      <trkpt lat="44.59161" lon="-0.27508">
        <ele>20</ele>
        <time>2016-04-17T11:58:22Z</time>
      </trkpt>
      <trkpt lat="44.59158" lon="-0.27497">
        <ele>19</ele>
        <time>2016-04-17T11:58:29Z</time>
      </trkpt>
      <trkpt lat="44.59157" lon="-0.27486">
        <ele>19</ele>
        <time>2016-04-17T11:58:36Z</time>
      </trkpt>
      <trkpt lat="44.59156" lon="-0.27474">
        <ele>18</ele>
        <time>2016-04-17T11:58:42Z</time>
      </trkpt>
      <trkpt lat="44.59156" lon="-0.27462">
        <ele>18</ele>
        <time>2016-04-17T11:58:49Z</time>
      </trkpt>
      <trkpt lat="44.59156" lon="-0.27451">
        <ele>18</ele>
        <time>2016-04-17T11:58:56Z</time>
      </trkpt>
      <trkpt lat="44.59155" lon="-0.27439">
        <ele>17</ele>
        <time>2016-04-17T11:59:03Z</time>
      </trkpt>
      <trkpt lat="44.59152" lon="-0.27429">
        <ele>17</ele>
        <time>2016-04-17T11:59:10Z</time>
      </trkpt>
      <trkpt lat="44.59146" lon="-0.27421">
        <ele>16</ele>
        <time>2016-04-17T11:59:16Z</time>
      </trkpt>
      <trkpt lat="44.59139" lon="-0.27416">
        <ele>16</ele>
        <time>2016-04-17T11:59:22Z</time>
      </trkpt>
      <trkpt lat="44.59131" lon="-0.27413">
        <ele>16</ele>
        <time>2016-04-17T11:59:39Z</time>
      </trkpt>
      <trkpt lat="44.59119" lon="-0.27414">
        <ele>15</ele>
        <time>2016-04-17T11:59:43Z</time>
      </trkpt>
      <trkpt lat="44.59111" lon="-0.27414">
        <ele>15</ele>
        <time>2016-04-17T11:59:52Z</time>
      </trkpt>
      <trkpt lat="44.59103" lon="-0.27416">
        <ele>15</ele>
        <time>2016-04-17T11:59:58Z</time>
      </trkpt>
      <trkpt lat="44.59096" lon="-0.27421">
        <ele>15</ele>
        <time>2016-04-17T12:00:04Z</time>
      </trkpt>
      <trkpt lat="44.59088" lon="-0.27425">
        <ele>15</ele>
        <time>2016-04-17T12:00:10Z</time>
      </trkpt>
      <trkpt lat="44.5908" lon="-0.27429">
        <ele>15</ele>
        <time>2016-04-17T12:00:17Z</time>
      </trkpt>
      <trkpt lat="44.59072" lon="-0.27431">
        <ele>14</ele>
        <time>2016-04-17T12:00:24Z</time>
      </trkpt>
      <trkpt lat="44.59063" lon="-0.27431">
        <ele>14</ele>
        <time>2016-04-17T12:00:31Z</time>
      </trkpt>
      <trkpt lat="44.59055" lon="-0.27428">
        <ele>14</ele>
        <time>2016-04-17T12:00:38Z</time>
      </trkpt>
      <trkpt lat="44.59047" lon="-0.27422">
        <ele>13</ele>
        <time>2016-04-17T12:00:46Z</time>
      </trkpt>
      <trkpt lat="44.5904" lon="-0.27413">
        <ele>12</ele>
        <time>2016-04-17T12:00:54Z</time>
      </trkpt>
      <trkpt lat="44.59034" lon="-0.27404">
        <ele>12</ele>
        <time>2016-04-17T12:01:02Z</time>
      </trkpt>
      <trkpt lat="44.5903" lon="-0.27395">
        <ele>11</ele>
        <time>2016-04-17T12:01:09Z</time>
      </trkpt>
      <trkpt lat="44.59025" lon="-0.27385">
        <ele>10</ele>
        <time>2016-04-17T12:01:16Z</time>
      </trkpt>
      <trkpt lat="44.59019" lon="-0.27376">
        <ele>10</ele>
        <time>2016-04-17T12:01:23Z</time>
      </trkpt>
      <trkpt lat="44.59014" lon="-0.27367">
        <ele>9</ele>
        <time>2016-04-17T12:01:30Z</time>
      </trkpt>
      <trkpt lat="44.59008" lon="-0.27358">
        <ele>8</ele>
        <time>2016-04-17T12:01:37Z</time>
      </trkpt>
      <trkpt lat="44.59001" lon="-0.27351">
        <ele>7</ele>
        <time>2016-04-17T12:01:44Z</time>
      </trkpt>
      <trkpt lat="44.58993" lon="-0.27347">
        <ele>6</ele>
        <time>2016-04-17T12:01:51Z</time>
      </trkpt>
      <trkpt lat="44.58985" lon="-0.27344">
        <ele>6</ele>
        <time>2016-04-17T12:01:58Z</time>
      </trkpt>
      <trkpt lat="44.58977" lon="-0.27344">
        <ele>5</ele>
        <time>2016-04-17T12:02:05Z</time>
      </trkpt>
      <trkpt lat="44.58969" lon="-0.27346">
        <ele>5</ele>
        <time>2016-04-17T12:02:12Z</time>
      </trkpt>
      <trkpt lat="44.58961" lon="-0.27347">
        <ele>4</ele>
        <time>2016-04-17T12:02:19Z</time>
      </trkpt>
      <trkpt lat="44.58952" lon="-0.27348">
        <ele>3</ele>
        <time>2016-04-17T12:02:26Z</time>
      </trkpt>
      <trkpt lat="44.58944" lon="-0.27348">
        <ele>3</ele>
        <time>2016-04-17T12:02:33Z</time>
      </trkpt>
      <trkpt lat="44.58935" lon="-0.27347">
        <ele>2</ele>
        <time>2016-04-17T12:02:39Z</time>
      </trkpt>
      <trkpt lat="44.58927" lon="-0.27345">
        <ele>1</ele>
        <time>2016-04-17T12:02:45Z</time>
      </trkpt>
      <trkpt lat="44.58918" lon="-0.27342">
        <ele>1</ele>
        <time>2016-04-17T12:02:53Z</time>
      </trkpt>
      <trkpt lat="44.58911" lon="-0.27336">
        <ele>51.9</ele>
        <time>2016-04-17T12:03:00Z</time>
      </trkpt>
      <trkpt lat="44.58904" lon="-0.2733">
        <ele>51.7</ele>
        <time>2016-04-17T12:03:07Z</time>
      </trkpt>
      <trkpt lat="44.58897" lon="-0.27323">
        <ele>-1</ele>
        <time>2016-04-17T12:03:14Z</time>
      </trkpt>
      <trkpt lat="44.58891" lon="-0.27315">
        <ele>-2</ele>
        <time>2016-04-17T12:03:21Z</time>
      </trkpt>
      <trkpt lat="44.58885" lon="-0.27306">
        <ele>-3</ele>
        <time>2016-04-17T12:03:28Z</time>
      </trkpt>
      <trkpt lat="44.5888" lon="-0.27296">
        <ele>-4</ele>
        <time>2016-04-17T12:03:35Z</time>
      </trkpt>
      <trkpt lat="44.58875" lon="-0.27286">
        <ele>-5</ele>
        <time>2016-04-17T12:03:42Z</time>
      </trkpt>
      <trkpt lat="44.5887" lon="-0.27276">
        <ele>-6</ele>
        <time>2016-04-17T12:03:50Z</time>
      </trkpt>
      <trkpt lat="44.58867" lon="-0.27266">
        <ele>-7</ele>
        <time>2016-04-17T12:03:58Z</time>
      </trkpt>
      <trkpt lat="44.58862" lon="-0.27258">
        <ele>-8</ele>
        <time>2016-04-17T12:04:11Z</time>
      </trkpt>
      <trkpt lat="44.58857" lon="-0.27248">
        <ele>-7</ele>
        <time>2016-04-17T12:04:17Z</time>
      </trkpt>
      <trkpt lat="44.58852" lon="-0.27238">
        <ele>-7</ele>
        <time>2016-04-17T12:04:25Z</time>
      </trkpt>
      <trkpt lat="44.58847" lon="-0.27228">
        <ele>-7</ele>
        <time>2016-04-17T12:04:33Z</time>
      </trkpt>
      <trkpt lat="44.58842" lon="-0.27219">
        <ele>-7</ele>
        <time>2016-04-17T12:04:40Z</time>
      </trkpt>
      <trkpt lat="44.58838" lon="-0.27209">
        <ele>-6</ele>
        <time>2016-04-17T12:04:48Z</time>
      </trkpt>
      <trkpt lat="44.58833" lon="-0.27201">
        <ele>-6</ele>
        <time>2016-04-17T12:04:55Z</time>
      </trkpt>
      <trkpt lat="44.58828" lon="-0.27191">
        <ele>-6</ele>
        <time>2016-04-17T12:05:02Z</time>
      </trkpt>
      <trkpt lat="44.58824" lon="-0.2718">
        <ele>-6</ele>
        <time>2016-04-17T12:05:08Z</time>
      </trkpt>
      <trkpt lat="44.5882" lon="-0.27171">
        <ele>-6</ele>
        <time>2016-04-17T12:05:18Z</time>
      </trkpt>
      <trkpt lat="44.58816" lon="-0.2716">
        <ele>-6</ele>
        <time>2016-04-17T12:05:22Z</time>
      </trkpt>
      <trkpt lat="44.58812" lon="-0.27149">
        <ele>-6</ele>
        <time>2016-04-17T12:05:29Z</time>
      </trkpt>
      <trkpt lat="44.58808" lon="-0.2714">
        <ele>-7</ele>
        <time>2016-04-17T12:05:35Z</time>
      </trkpt>
      <trkpt lat="44.58803" lon="-0.27129">
        <ele>-8</ele>
        <time>2016-04-17T12:05:43Z</time>
      </trkpt>
      <trkpt lat="44.58798" lon="-0.2712">
        <ele>-8</ele>
        <time>2016-04-17T12:05:49Z</time>
      </trkpt>
      <trkpt lat="44.58794" lon="-0.2711">
        <ele>-10</ele>
        <time>2016-04-17T12:05:56Z</time>
      </trkpt>
      <trkpt lat="44.58789" lon="-0.27101">
        <ele>-11</ele>
        <time>2016-04-17T12:06:03Z</time>
      </trkpt>
      <trkpt lat="44.58785" lon="-0.27091">
        <ele>-12</ele>
        <time>2016-04-17T12:06:09Z</time>
      </trkpt>
      <trkpt lat="44.58782" lon="-0.27081">
        <ele>-13</ele>
        <time>2016-04-17T12:06:15Z</time>
      </trkpt>
      <trkpt lat="44.5878" lon="-0.27069">
        <ele>-15</ele>
        <time>2016-04-17T12:06:23Z</time>
      </trkpt>
      <trkpt lat="44.58777" lon="-0.27058">
        <ele>-16</ele>
        <time>2016-04-17T12:06:30Z</time>
      </trkpt>
      <trkpt lat="44.58775" lon="-0.27046">
        <ele>-18</ele>
        <time>2016-04-17T12:06:37Z</time>
      </trkpt>
      <trkpt lat="44.58772" lon="-0.27035">
        <ele>-19</ele>
        <time>2016-04-17T12:06:44Z</time>
      </trkpt>
      <trkpt lat="44.58769" lon="-0.27024">
        <ele>-21</ele>
        <time>2016-04-17T12:06:51Z</time>
      </trkpt>
      <trkpt lat="44.58765" lon="-0.27014">
        <ele>-22</ele>
        <time>2016-04-17T12:06:59Z</time>
      </trkpt>
      <trkpt lat="44.58761" lon="-0.27003">
        <ele>-23</ele>
        <time>2016-04-17T12:07:07Z</time>
      </trkpt>
      <trkpt lat="44.58756" lon="-0.26994">
        <ele>-23</ele>
        <time>2016-04-17T12:07:14Z</time>
      </trkpt>
      <trkpt lat="44.58749" lon="-0.26986">
        <ele>-24</ele>
        <time>2016-04-17T12:07:21Z</time>
      </trkpt>
      <trkpt lat="44.58743" lon="-0.26979">
        <ele>-24</ele>
        <time>2016-04-17T12:07:27Z</time>
      </trkpt>
      <trkpt lat="44.58737" lon="-0.26972">
        <ele>-25</ele>
        <time>2016-04-17T12:07:33Z</time>
      </trkpt>
      <trkpt lat="44.5873" lon="-0.26965">
        <ele>-25</ele>
        <time>2016-04-17T12:07:39Z</time>
      </trkpt>
      <trkpt lat="44.58724" lon="-0.26958">
        <ele>-26</ele>
        <time>2016-04-17T12:07:45Z</time>
      </trkpt>
      <trkpt lat="44.58717" lon="-0.26951">
        <ele>-26</ele>
        <time>2016-04-17T12:07:52Z</time>
      </trkpt>
      <trkpt lat="44.5871" lon="-0.26942">
        <ele>-27</ele>
        <time>2016-04-17T12:08:00Z</time>
      </trkpt>
      <trkpt lat="44.58703" lon="-0.26935">
        <ele>-28</ele>
        <time>2016-04-17T12:08:06Z</time>
      </trkpt>
      <trkpt lat="44.58698" lon="-0.26926">
        <ele>-29</ele>
        <time>2016-04-17T12:08:13Z</time>
      </trkpt>
      <trkpt lat="44.58692" lon="-0.26916">
        <ele>-30</ele>
        <time>2016-04-17T12:08:21Z</time>
      </trkpt>
      <trkpt lat="44.58688" lon="-0.26907">
        <ele>-31</ele>
        <time>2016-04-17T12:08:28Z</time>
      </trkpt>
      <trkpt lat="44.58683" lon="-0.26897">
        <ele>-32</ele>
        <time>2016-04-17T12:08:35Z</time>
      </trkpt>
      <trkpt lat="44.58679" lon="-0.26887">
        <ele>-33</ele>
        <time>2016-04-17T12:08:43Z</time>
      </trkpt>
      <trkpt lat="44.58673" lon="-0.26878">
        <ele>-34</ele>
        <time>2016-04-17T12:08:49Z</time>
      </trkpt>
      <trkpt lat="44.58667" lon="-0.2687">
        <ele>-35</ele>
        <time>2016-04-17T12:08:56Z</time>
      </trkpt>
      <trkpt lat="44.5866" lon="-0.26864">
        <ele>-36</ele>
        <time>2016-04-17T12:09:02Z</time>
      </trkpt>
      <trkpt lat="44.58652" lon="-0.26858">
        <ele>-37</ele>
        <time>2016-04-17T12:09:08Z</time>
      </trkpt>
      <trkpt lat="44.58645" lon="-0.26853">
        <ele>-39</ele>
        <time>2016-04-17T12:09:14Z</time>
      </trkpt>
      <trkpt lat="44.58638" lon="-0.26848">
        <ele>-40</ele>
        <time>2016-04-17T12:09:21Z</time>
      </trkpt>
      <trkpt lat="44.58629" lon="-0.26844">
        <ele>-42</ele>
        <time>2016-04-17T12:09:28Z</time>
      </trkpt>
      <trkpt lat="44.58621" lon="-0.26838">
        <ele>-43</ele>
        <time>2016-04-17T12:09:35Z</time>
      </trkpt>
      <trkpt lat="44.58613" lon="-0.26834">
        <ele>-45</ele>
        <time>2016-04-17T12:09:41Z</time>
      </trkpt>
      <trkpt lat="44.58606" lon="-0.26828">
        <ele>-45</ele>
        <time>2016-04-17T12:09:49Z</time>
      </trkpt>
      <trkpt lat="44.586" lon="-0.26822">
        <ele>-46</ele>
        <time>2016-04-17T12:09:56Z</time>
      </trkpt>
      <trkpt lat="44.58594" lon="-0.26813">
        <ele>-46</ele>
        <time>2016-04-17T12:10:03Z</time>
      </trkpt>
      <trkpt lat="44.58589" lon="-0.26804">
        <ele>-46</ele>
        <time>2016-04-17T12:10:09Z</time>
      </trkpt>
      <trkpt lat="44.58585" lon="-0.26795">
        <ele>-46</ele>
        <time>2016-04-17T12:10:16Z</time>
      </trkpt>
      <trkpt lat="44.58582" lon="-0.26784">
        <ele>-45</ele>
        <time>2016-04-17T12:10:23Z</time>
      </trkpt>
      <trkpt lat="44.58579" lon="-0.26772">
        <ele>-45</ele>
        <time>2016-04-17T12:10:30Z</time>
      </trkpt>
      <trkpt lat="44.58576" lon="-0.26761">
        <ele>-45</ele>
        <time>2016-04-17T12:10:37Z</time>
      </trkpt>
      <trkpt lat="44.58572" lon="-0.2675">
        <ele>-45</ele>
        <time>2016-04-17T12:10:44Z</time>
      </trkpt>
      <trkpt lat="44.58569" lon="-0.26739">
        <ele>-46</ele>
        <time>2016-04-17T12:10:51Z</time>
      </trkpt>
      <trkpt lat="44.58565" lon="-0.26728">
        <ele>-46</ele>
        <time>2016-04-17T12:10:59Z</time>
      </trkpt>
      <trkpt lat="44.58562" lon="-0.26717">
        <ele>-46</ele>
        <time>2016-04-17T12:11:07Z</time>
      </trkpt>
      <trkpt lat="44.58556" lon="-0.26708">
        <ele>-46</ele>
        <time>2016-04-17T12:11:55Z</time>
      </trkpt>
      <trkpt lat="44.58554" lon="-0.26692">
        <ele>-46</ele>
        <time>2016-04-17T12:12:00Z</time>
      </trkpt>
      <trkpt lat="44.58554" lon="-0.26692">
        <ele>-46</ele>
        <time>2016-04-17T12:12:10Z</time>
      </trkpt>
      <trkpt lat="44.58551" lon="-0.26679">
        <ele>-47</ele>
        <time>2016-04-17T12:12:15Z</time>
      </trkpt>
      <trkpt lat="44.58551" lon="-0.26679">
        <ele>-47</ele>
        <time>2016-04-17T12:12:24Z</time>
      </trkpt>
      <trkpt lat="44.58545" lon="-0.26665">
        <ele>-46</ele>
        <time>2016-04-17T12:12:29Z</time>
      </trkpt>
      <trkpt lat="44.58542" lon="-0.26654">
        <ele>-46</ele>
        <time>2016-04-17T12:12:37Z</time>
      </trkpt>
      <trkpt lat="44.5854" lon="-0.26642">
        <ele>-46</ele>
        <time>2016-04-17T12:12:45Z</time>
      </trkpt>
      <trkpt lat="44.58539" lon="-0.2663">
        <ele>-45</ele>
        <time>2016-04-17T12:12:53Z</time>
      </trkpt>
      <trkpt lat="44.58537" lon="-0.26618">
        <ele>-45</ele>
        <time>2016-04-17T12:13:01Z</time>
      </trkpt>
      <trkpt lat="44.58533" lon="-0.26607">
        <ele>-45</ele>
        <time>2016-04-17T12:13:11Z</time>
      </trkpt>
      <trkpt lat="44.58531" lon="-0.26595">
        <ele>-44</ele>
        <time>2016-04-17T12:13:20Z</time>
      </trkpt>
      <trkpt lat="44.5853" lon="-0.26583">
        <ele>-44</ele>
        <time>2016-04-17T12:13:29Z</time>
      </trkpt>
      <trkpt lat="44.58528" lon="-0.26571">
        <ele>-44</ele>
        <time>2016-04-17T12:13:37Z</time>
      </trkpt>
      <trkpt lat="44.58526" lon="-0.2656">
        <ele>-44</ele>
        <time>2016-04-17T12:13:45Z</time>
      </trkpt>
      <trkpt lat="44.58523" lon="-0.26548">
        <ele>-43</ele>
        <time>2016-04-17T12:13:53Z</time>
      </trkpt>
      <trkpt lat="44.58526" lon="-0.26536">
        <ele>-44</ele>
        <time>2016-04-17T12:14:02Z</time>
      </trkpt>
      <trkpt lat="44.58533" lon="-0.26528">
        <ele>-44</ele>
        <time>2016-04-17T12:14:11Z</time>
      </trkpt>
      <trkpt lat="44.58535" lon="-0.26517">
        <ele>-44</ele>
        <time>2016-04-17T12:14:20Z</time>
      </trkpt>
      <trkpt lat="44.58534" lon="-0.26504">
        <ele>-44</ele>
        <time>2016-04-17T12:14:28Z</time>
      </trkpt>
      <trkpt lat="44.58532" lon="-0.26493">
        <ele>-43</ele>
        <time>2016-04-17T12:14:36Z</time>
      </trkpt>
      <trkpt lat="44.58528" lon="-0.26482">
        <ele>-43</ele>
        <time>2016-04-17T12:14:44Z</time>
      </trkpt>
      <trkpt lat="44.58525" lon="-0.2647">
        <ele>-43</ele>
        <time>2016-04-17T12:14:53Z</time>
      </trkpt>
      <trkpt lat="44.58522" lon="-0.2646">
        <ele>-43</ele>
        <time>2016-04-17T12:15:00Z</time>
      </trkpt>
      <trkpt lat="44.58519" lon="-0.26449">
        <ele>-43</ele>
        <time>2016-04-17T12:15:07Z</time>
      </trkpt>
      <trkpt lat="44.58515" lon="-0.26439">
        <ele>-43</ele>
        <time>2016-04-17T12:15:14Z</time>
      </trkpt>
      <trkpt lat="44.58511" lon="-0.26428">
        <ele>-43</ele>
        <time>2016-04-17T12:15:20Z</time>
      </trkpt>
      <trkpt lat="44.58511" lon="-0.26416">
        <ele>-43</ele>
        <time>2016-04-17T12:15:30Z</time>
      </trkpt>
      <trkpt lat="44.58512" lon="-0.26413">
        <ele>-43</ele>
        <time>2016-04-17T12:15:41Z</time>
      </trkpt>
      <trkpt lat="44.58516" lon="-0.264">
        <ele>-44</ele>
        <time>2016-04-17T12:15:45Z</time>
      </trkpt>
      <trkpt lat="44.58519" lon="-0.2639">
        <ele>-44</ele>
        <time>2016-04-17T12:15:53Z</time>
      </trkpt>
      <trkpt lat="44.58523" lon="-0.2638">
        <ele>-44</ele>
        <time>2016-04-17T12:16:00Z</time>
      </trkpt>
      <trkpt lat="44.58524" lon="-0.26372">
        <ele>-44</ele>
        <time>2016-04-17T12:17:31Z</time>
      </trkpt>
      <trkpt lat="44.58525" lon="-0.26357">
        <ele>-45</ele>
        <time>2016-04-17T12:17:35Z</time>
      </trkpt>
      <trkpt lat="44.58525" lon="-0.26357">
        <ele>-45</ele>
        <time>2016-04-17T12:18:29Z</time>
      </trkpt>
      <trkpt lat="44.58533" lon="-0.26347">
        <ele>-45</ele>
        <time>2016-04-17T12:18:33Z</time>
      </trkpt>
      <trkpt lat="44.58541" lon="-0.26343">
        <ele>-45</ele>
        <time>2016-04-17T12:18:49Z</time>
      </trkpt>
      <trkpt lat="44.58545" lon="-0.26331">
        <ele>-45</ele>
        <time>2016-04-17T12:18:55Z</time>
      </trkpt>
      <trkpt lat="44.58545" lon="-0.2632">
        <ele>-45</ele>
        <time>2016-04-17T12:19:01Z</time>
      </trkpt>
      <trkpt lat="44.58545" lon="-0.26308">
        <ele>-46</ele>
        <time>2016-04-17T12:19:10Z</time>
      </trkpt>
      <trkpt lat="44.58544" lon="-0.26296">
        <ele>-46</ele>
        <time>2016-04-17T12:19:17Z</time>
      </trkpt>
      <trkpt lat="44.58544" lon="-0.26283">
        <ele>-46</ele>
        <time>2016-04-17T12:19:26Z</time>
      </trkpt>
      <trkpt lat="44.58544" lon="-0.26271">
        <ele>-46</ele>
        <time>2016-04-17T12:19:34Z</time>
      </trkpt>
      <trkpt lat="44.58544" lon="-0.2626">
        <ele>-46</ele>
        <time>2016-04-17T12:19:40Z</time>
      </trkpt>
      <trkpt lat="44.58544" lon="-0.26249">
        <ele>-46</ele>
        <time>2016-04-17T12:19:47Z</time>
      </trkpt>
      <trkpt lat="44.58544" lon="-0.26237">
        <ele>-46</ele>
        <time>2016-04-17T12:19:54Z</time>
      </trkpt>
      <trkpt lat="44.58545" lon="-0.26226">
        <ele>-47</ele>
        <time>2016-04-17T12:20:01Z</time>
      </trkpt>
      <trkpt lat="44.58547" lon="-0.26214">
        <ele>-47</ele>
        <time>2016-04-17T12:20:08Z</time>
      </trkpt>
      <trkpt lat="44.58548" lon="-0.26206">
        <ele>-46</ele>
        <time>2016-04-17T12:20:20Z</time>
      </trkpt>
      <trkpt lat="44.58551" lon="-0.26195">
        <ele>-46</ele>
        <time>2016-04-17T12:20:30Z</time>
      </trkpt>
      <trkpt lat="44.58554" lon="-0.26182">
        <ele>-45</ele>
        <time>2016-04-17T12:20:34Z</time>
      </trkpt>
      <trkpt lat="44.58554" lon="-0.26182">
        <ele>-45</ele>
        <time>2016-04-17T12:20:51Z</time>
      </trkpt>
      <trkpt lat="44.58559" lon="-0.26169">
        <ele>-45</ele>
        <time>2016-04-17T12:20:55Z</time>
      </trkpt>
      <trkpt lat="44.58559" lon="-0.26169">
        <ele>-45</ele>
        <time>2016-04-17T12:21:07Z</time>
      </trkpt>
      <trkpt lat="44.5857" lon="-0.2616">
        <ele>-44</ele>
        <time>2016-04-17T12:21:11Z</time>
      </trkpt>
      <trkpt lat="44.58579" lon="-0.26158">
        <ele>-43</ele>
        <time>2016-04-17T12:21:20Z</time>
      </trkpt>
      <trkpt lat="44.58588" lon="-0.26157">
        <ele>-43</ele>
        <time>2016-04-17T12:21:37Z</time>
      </trkpt>
      <trkpt lat="44.58596" lon="-0.26153">
        <ele>-42</ele>
        <time>2016-04-17T12:21:42Z</time>
      </trkpt>
      <trkpt lat="44.58596" lon="-0.26153">
        <ele>-42</ele>
        <time>2016-04-17T12:21:57Z</time>
      </trkpt>
      <trkpt lat="44.58608" lon="-0.26144">
        <ele>-42</ele>
        <time>2016-04-17T12:22:01Z</time>
      </trkpt>
      <trkpt lat="44.58608" lon="-0.26144">
        <ele>-42</ele>
        <time>2016-04-17T12:22:19Z</time>
      </trkpt>
      <trkpt lat="44.58612" lon="-0.26131">
        <ele>-42</ele>
        <time>2016-04-17T12:22:24Z</time>
      </trkpt>
      <trkpt lat="44.58621" lon="-0.26128">
        <ele>-42</ele>
        <time>2016-04-17T12:22:33Z</time>
      </trkpt>
      <trkpt lat="44.58622" lon="-0.26127">
        <ele>-42</ele>
        <time>2016-04-17T12:22:53Z</time>
      </trkpt>
      <trkpt lat="44.58633" lon="-0.26121">
        <ele>-43</ele>
        <time>2016-04-17T12:22:57Z</time>
      </trkpt>
      <trkpt lat="44.5864" lon="-0.26115">
        <ele>-43</ele>
        <time>2016-04-17T12:23:03Z</time>
      </trkpt>
      <trkpt lat="44.58647" lon="-0.2611">
        <ele>-44</ele>
        <time>2016-04-17T12:23:10Z</time>
      </trkpt>
      <trkpt lat="44.58651" lon="-0.26105">
        <ele>-44</ele>
        <time>2016-04-17T12:23:31Z</time>
      </trkpt>
      <trkpt lat="44.58657" lon="-0.26091">
        <ele>-44</ele>
        <time>2016-04-17T12:23:36Z</time>
      </trkpt>
      <trkpt lat="44.58657" lon="-0.26091">
        <ele>-44</ele>
        <time>2016-04-17T12:23:43Z</time>
      </trkpt>
      <trkpt lat="44.58667" lon="-0.26078">
        <ele>-44</ele>
        <time>2016-04-17T12:23:47Z</time>
      </trkpt>
      <trkpt lat="44.58667" lon="-0.26078">
        <ele>-44</ele>
        <time>2016-04-17T12:23:55Z</time>
      </trkpt>
      <trkpt lat="44.58676" lon="-0.26068">
        <ele>-44</ele>
        <time>2016-04-17T12:24:00Z</time>
      </trkpt>
      <trkpt lat="44.58676" lon="-0.26068">
        <ele>-44</ele>
        <time>2016-04-17T12:24:09Z</time>
      </trkpt>
      <trkpt lat="44.58682" lon="-0.26051">
        <ele>-43</ele>
        <time>2016-04-17T12:24:14Z</time>
      </trkpt>
      <trkpt lat="44.58682" lon="-0.26051">
        <ele>-43</ele>
        <time>2016-04-17T12:24:22Z</time>
      </trkpt>
      <trkpt lat="44.58683" lon="-0.26032">
        <ele>-43</ele>
        <time>2016-04-17T12:24:26Z</time>
      </trkpt>
      <trkpt lat="44.58683" lon="-0.26032">
        <ele>-43</ele>
        <time>2016-04-17T12:24:34Z</time>
      </trkpt>
      <trkpt lat="44.58682" lon="-0.26016">
        <ele>-43</ele>
        <time>2016-04-17T12:24:38Z</time>
      </trkpt>
      <trkpt lat="44.58682" lon="-0.26016">
        <ele>-43</ele>
        <time>2016-04-17T12:24:46Z</time>
      </trkpt>
      <trkpt lat="44.58683" lon="-0.25998">
        <ele>-42</ele>
        <time>2016-04-17T12:24:51Z</time>
      </trkpt>
      <trkpt lat="44.58683" lon="-0.25998">
        <ele>-42</ele>
        <time>2016-04-17T12:25:00Z</time>
      </trkpt>
      <trkpt lat="44.58686" lon="-0.25981">
        <ele>-42</ele>
        <time>2016-04-17T12:25:04Z</time>
      </trkpt>
      <trkpt lat="44.58686" lon="-0.25981">
        <ele>-42</ele>
        <time>2016-04-17T12:25:10Z</time>
      </trkpt>
      <trkpt lat="44.58686" lon="-0.25964">
        <ele>-41</ele>
        <time>2016-04-17T12:25:14Z</time>
      </trkpt>
      <trkpt lat="44.58686" lon="-0.25964">
        <ele>-41</ele>
        <time>2016-04-17T12:25:23Z</time>
      </trkpt>
      <trkpt lat="44.5869" lon="-0.25948">
        <ele>-41</ele>
        <time>2016-04-17T12:25:28Z</time>
      </trkpt>
      <trkpt lat="44.5869" lon="-0.25948">
        <ele>-41</ele>
        <time>2016-04-17T12:25:38Z</time>
      </trkpt>
      <trkpt lat="44.58693" lon="-0.2593">
        <ele>-40</ele>
        <time>2016-04-17T12:25:42Z</time>
      </trkpt>
      <trkpt lat="44.58693" lon="-0.2593">
        <ele>-40</ele>
        <time>2016-04-17T12:25:52Z</time>
      </trkpt>
      <trkpt lat="44.58698" lon="-0.25907">
        <ele>-40</ele>
        <time>2016-04-17T12:25:57Z</time>
      </trkpt>
      <trkpt lat="44.58699" lon="-0.25904">
        <ele>-40</ele>
        <time>2016-04-17T12:26:21Z</time>
      </trkpt>
      <trkpt lat="44.58712" lon="-0.25897">
        <ele>-40</ele>
        <time>2016-04-17T12:26:26Z</time>
      </trkpt>
      <trkpt lat="44.58712" lon="-0.25897">
        <ele>-40</ele>
        <time>2016-04-17T12:26:33Z</time>
      </trkpt>
      <trkpt lat="44.58724" lon="-0.25891">
        <ele>-39</ele>
        <time>2016-04-17T12:26:37Z</time>
      </trkpt>
      <trkpt lat="44.58731" lon="-0.25884">
        <ele>-39</ele>
        <time>2016-04-17T12:26:58Z</time>
      </trkpt>
      <trkpt lat="44.58737" lon="-0.25873">
        <ele>-38</ele>
        <time>2016-04-17T12:27:02Z</time>
      </trkpt>
      <trkpt lat="44.58737" lon="-0.25873">
        <ele>-38</ele>
        <time>2016-04-17T12:27:14Z</time>
      </trkpt>
      <trkpt lat="44.58747" lon="-0.25862">
        <ele>-38</ele>
        <time>2016-04-17T12:27:18Z</time>
      </trkpt>
      <trkpt lat="44.58747" lon="-0.25862">
        <ele>-38</ele>
        <time>2016-04-17T12:27:26Z</time>
      </trkpt>
      <trkpt lat="44.58759" lon="-0.25855">
        <ele>-37</ele>
        <time>2016-04-17T12:27:30Z</time>
      </trkpt>
      <trkpt lat="44.58759" lon="-0.25855">
        <ele>-37</ele>
        <time>2016-04-17T12:27:37Z</time>
      </trkpt>
      <trkpt lat="44.5877" lon="-0.25849">
        <ele>-36</ele>
        <time>2016-04-17T12:27:42Z</time>
      </trkpt>
      <trkpt lat="44.5877" lon="-0.25849">
        <ele>-36</ele>
        <time>2016-04-17T12:27:55Z</time>
      </trkpt>
      <trkpt lat="44.58782" lon="-0.25843">
        <ele>-36</ele>
        <time>2016-04-17T12:27:59Z</time>
      </trkpt>
      <trkpt lat="44.58782" lon="-0.25843">
        <ele>-36</ele>
        <time>2016-04-17T12:28:06Z</time>
      </trkpt>
      <trkpt lat="44.58796" lon="-0.25838">
        <ele>-36</ele>
        <time>2016-04-17T12:28:10Z</time>
      </trkpt>
      <trkpt lat="44.58796" lon="-0.25838">
        <ele>-36</ele>
        <time>2016-04-17T12:28:16Z</time>
      </trkpt>
      <trkpt lat="44.58808" lon="-0.25835">
        <ele>-36</ele>
        <time>2016-04-17T12:28:21Z</time>
      </trkpt>
      <trkpt lat="44.58808" lon="-0.25835">
        <ele>-36</ele>
        <time>2016-04-17T12:28:28Z</time>
      </trkpt>
      <trkpt lat="44.5882" lon="-0.25837">
        <ele>-36</ele>
        <time>2016-04-17T12:28:32Z</time>
      </trkpt>
      <trkpt lat="44.5882" lon="-0.25837">
        <ele>-36</ele>
        <time>2016-04-17T12:28:40Z</time>
      </trkpt>
      <trkpt lat="44.58832" lon="-0.25841">
        <ele>-35</ele>
        <time>2016-04-17T12:28:45Z</time>
      </trkpt>
      <trkpt lat="44.58841" lon="-0.25845">
        <ele>-35</ele>
        <time>2016-04-17T12:28:52Z</time>
      </trkpt>
      <trkpt lat="44.58847" lon="-0.25851">
        <ele>-35</ele>
        <time>2016-04-17T12:29:08Z</time>
      </trkpt>
      <trkpt lat="44.58855" lon="-0.25858">
        <ele>-34</ele>
        <time>2016-04-17T12:29:12Z</time>
      </trkpt>
      <trkpt lat="44.58855" lon="-0.25858">
        <ele>-34</ele>
        <time>2016-04-17T12:29:22Z</time>
      </trkpt>
      <trkpt lat="44.58865" lon="-0.25868">
        <ele>-34</ele>
        <time>2016-04-17T12:29:26Z</time>
      </trkpt>
      <trkpt lat="44.58871" lon="-0.25875">
        <ele>-34</ele>
        <time>2016-04-17T12:29:48Z</time>
      </trkpt>
      <trkpt lat="44.58879" lon="-0.25887">
        <ele>-34</ele>
        <time>2016-04-17T12:29:53Z</time>
      </trkpt>
      <trkpt lat="44.58879" lon="-0.25887">
        <ele>-34</ele>
        <time>2016-04-17T12:31:34Z</time>
      </trkpt>
      <trkpt lat="44.58888" lon="-0.25887">
        <ele>-35</ele>
        <time>2016-04-17T12:31:38Z</time>
      </trkpt>
      <trkpt lat="44.58888" lon="-0.25887">
        <ele>-35</ele>
        <time>2016-04-17T12:32:53Z</time>
      </trkpt>
      <trkpt lat="44.58896" lon="-0.25893">
        <ele>-37</ele>
        <time>2016-04-17T12:34:33Z</time>
      </trkpt>
      <trkpt lat="44.58885" lon="-0.2589">
        <ele>-36</ele>
        <time>2016-04-17T12:34:37Z</time>
      </trkpt>
      <trkpt lat="44.58885" lon="-0.2589">
        <ele>-36</ele>
        <time>2016-04-17T12:35:27Z</time>
      </trkpt>
      <trkpt lat="44.58892" lon="-0.259">
        <ele>-35</ele>
        <time>2016-04-17T12:35:31Z</time>
      </trkpt>
      <trkpt lat="44.58896" lon="-0.25888">
        <ele>-35</ele>
        <time>2016-04-17T12:36:07Z</time>
      </trkpt>
      <trkpt lat="44.58902" lon="-0.25872">
        <ele>-34</ele>
        <time>2016-04-17T12:36:12Z</time>
      </trkpt>
      <trkpt lat="44.58902" lon="-0.25872">
        <ele>-34</ele>
        <time>2016-04-17T12:36:19Z</time>
      </trkpt>
      <trkpt lat="44.58906" lon="-0.25855">
        <ele>-34</ele>
        <time>2016-04-17T12:36:24Z</time>
      </trkpt>
      <trkpt lat="44.58909" lon="-0.25845">
        <ele>-34</ele>
        <time>2016-04-17T12:36:29Z</time>
      </trkpt>
      <trkpt lat="44.58911" lon="-0.25834">
        <ele>-34</ele>
        <time>2016-04-17T12:36:36Z</time>
      </trkpt>
      <trkpt lat="44.58914" lon="-0.25822">
        <ele>-34</ele>
        <time>2016-04-17T12:36:43Z</time>
      </trkpt>
      <trkpt lat="44.58916" lon="-0.2581">
        <ele>-34</ele>
        <time>2016-04-17T12:36:50Z</time>
      </trkpt>
      <trkpt lat="44.58917" lon="-0.25798">
        <ele>-33</ele>
        <time>2016-04-17T12:37:02Z</time>
      </trkpt>
      <trkpt lat="44.58918" lon="-0.25782">
        <ele>-32</ele>
        <time>2016-04-17T12:37:07Z</time>
      </trkpt>
      <trkpt lat="44.58918" lon="-0.2577">
        <ele>-32</ele>
        <time>2016-04-17T12:37:15Z</time>
      </trkpt>
      <trkpt lat="44.58919" lon="-0.25758">
        <ele>-32</ele>
        <time>2016-04-17T12:37:22Z</time>
      </trkpt>
      <trkpt lat="44.5892" lon="-0.25746">
        <ele>-31</ele>
        <time>2016-04-17T12:37:29Z</time>
      </trkpt>
      <trkpt lat="44.58921" lon="-0.25735">
        <ele>-31</ele>
        <time>2016-04-17T12:37:36Z</time>
      </trkpt>
      <trkpt lat="44.58923" lon="-0.25724">
        <ele>-30</ele>
        <time>2016-04-17T12:37:42Z</time>
      </trkpt>
      <trkpt lat="44.58925" lon="-0.25713">
        <ele>-29</ele>
        <time>2016-04-17T12:37:49Z</time>
      </trkpt>
      <trkpt lat="44.58926" lon="-0.25703">
        <ele>-28</ele>
        <time>2016-04-17T12:38:00Z</time>
      </trkpt>
      <trkpt lat="44.58928" lon="-0.25689">
        <ele>-27</ele>
        <time>2016-04-17T12:38:04Z</time>
      </trkpt>
      <trkpt lat="44.58928" lon="-0.25678">
        <ele>-27</ele>
        <time>2016-04-17T12:38:11Z</time>
      </trkpt>
      <trkpt lat="44.58928" lon="-0.25667">
        <ele>-27</ele>
        <time>2016-04-17T12:38:17Z</time>
      </trkpt>
      <trkpt lat="44.58931" lon="-0.25657">
        <ele>-26</ele>
        <time>2016-04-17T12:38:23Z</time>
      </trkpt>
      <trkpt lat="44.58933" lon="-0.25646">
        <ele>-26</ele>
        <time>2016-04-17T12:38:29Z</time>
      </trkpt>
      <trkpt lat="44.58936" lon="-0.25635">
        <ele>-25</ele>
        <time>2016-04-17T12:38:36Z</time>
      </trkpt>
      <trkpt lat="44.5894" lon="-0.25624">
        <ele>-25</ele>
        <time>2016-04-17T12:38:44Z</time>
      </trkpt>
      <trkpt lat="44.58945" lon="-0.25614">
        <ele>-25</ele>
        <time>2016-04-17T12:38:51Z</time>
      </trkpt>
      <trkpt lat="44.58948" lon="-0.25603">
        <ele>-24</ele>
        <time>2016-04-17T12:38:59Z</time>
      </trkpt>
      <trkpt lat="44.58953" lon="-0.25594">
        <ele>-24</ele>
        <time>2016-04-17T12:39:06Z</time>
      </trkpt>
      <trkpt lat="44.58959" lon="-0.25586">
        <ele>-24</ele>
        <time>2016-04-17T12:39:14Z</time>
      </trkpt>
      <trkpt lat="44.58965" lon="-0.25579">
        <ele>-24</ele>
        <time>2016-04-17T12:39:20Z</time>
      </trkpt>
      <trkpt lat="44.58968" lon="-0.25575">
        <ele>-23</ele>
        <time>2016-04-17T12:39:33Z</time>
      </trkpt>
      <trkpt lat="44.58974" lon="-0.25563">
        <ele>-23</ele>
        <time>2016-04-17T12:39:37Z</time>
      </trkpt>
      <trkpt lat="44.58979" lon="-0.25556">
        <ele>-23</ele>
        <time>2016-04-17T12:39:45Z</time>
      </trkpt>
      <trkpt lat="44.58984" lon="-0.25547">
        <ele>-23</ele>
        <time>2016-04-17T12:39:51Z</time>
      </trkpt>
      <trkpt lat="44.58988" lon="-0.25537">
        <ele>-22</ele>
        <time>2016-04-17T12:39:58Z</time>
      </trkpt>
      <trkpt lat="44.58992" lon="-0.25527">
        <ele>-21</ele>
        <time>2016-04-17T12:40:05Z</time>
      </trkpt>
      <trkpt lat="44.58996" lon="-0.2552">
        <ele>-21</ele>
        <time>2016-04-17T12:40:19Z</time>
      </trkpt>
      <trkpt lat="44.59004" lon="-0.25506">
        <ele>-20</ele>
        <time>2016-04-17T12:40:24Z</time>
      </trkpt>
      <trkpt lat="44.59004" lon="-0.25505">
        <ele>-19</ele>
        <time>2016-04-17T12:41:36Z</time>
      </trkpt>
      <trkpt lat="44.59014" lon="-0.25496">
        <ele>-19</ele>
        <time>2016-04-17T12:41:40Z</time>
      </trkpt>
      <trkpt lat="44.5902" lon="-0.25488">
        <ele>-19</ele>
        <time>2016-04-17T12:41:47Z</time>
      </trkpt>
      <trkpt lat="44.59025" lon="-0.2548">
        <ele>-19</ele>
        <time>2016-04-17T12:41:53Z</time>
      </trkpt>
      <trkpt lat="44.59032" lon="-0.25472">
        <ele>-19</ele>
        <time>2016-04-17T12:42:01Z</time>
      </trkpt>
      <trkpt lat="44.59038" lon="-0.25465">
        <ele>-19</ele>
        <time>2016-04-17T12:42:09Z</time>
      </trkpt>
      <trkpt lat="44.59046" lon="-0.25458">
        <ele>-19</ele>
        <time>2016-04-17T12:42:18Z</time>
      </trkpt>
      <trkpt lat="44.59053" lon="-0.25451">
        <ele>-20</ele>
        <time>2016-04-17T12:42:26Z</time>
      </trkpt>
      <trkpt lat="44.59058" lon="-0.25443">
        <ele>-20</ele>
        <time>2016-04-17T12:42:32Z</time>
      </trkpt>
      <trkpt lat="44.59062" lon="-0.25433">
        <ele>-20</ele>
        <time>2016-04-17T12:42:37Z</time>
      </trkpt>
      <trkpt lat="44.59062" lon="-0.25422">
        <ele>-20</ele>
        <time>2016-04-17T12:42:44Z</time>
      </trkpt>
      <trkpt lat="44.59062" lon="-0.25409">
        <ele>-20</ele>
        <time>2016-04-17T12:42:51Z</time>
      </trkpt>
      <trkpt lat="44.59062" lon="-0.25408">
        <ele>-20</ele>
        <time>2016-04-17T12:43:02Z</time>
      </trkpt>
      <trkpt lat="44.59068" lon="-0.25393">
        <ele>-22</ele>
        <time>2016-04-17T12:43:06Z</time>
      </trkpt>
      <trkpt lat="44.59072" lon="-0.2539">
        <ele>-23</ele>
        <time>2016-04-17T12:43:19Z</time>
      </trkpt>
      <trkpt lat="44.59079" lon="-0.25375">
        <ele>-23</ele>
        <time>2016-04-17T12:43:24Z</time>
      </trkpt>
      <trkpt lat="44.59085" lon="-0.25368">
        <ele>-24</ele>
        <time>2016-04-17T12:44:05Z</time>
      </trkpt>
      <trkpt lat="44.59095" lon="-0.25358">
        <ele>-25</ele>
        <time>2016-04-17T12:44:09Z</time>
      </trkpt>
      <trkpt lat="44.59098" lon="-0.25356">
        <ele>-25</ele>
        <time>2016-04-17T12:44:19Z</time>
      </trkpt>
      <trkpt lat="44.59106" lon="-0.2535">
        <ele>-24</ele>
        <time>2016-04-17T12:44:27Z</time>
      </trkpt>
      <trkpt lat="44.59114" lon="-0.25349">
        <ele>-24</ele>
        <time>2016-04-17T12:44:31Z</time>
      </trkpt>
      <trkpt lat="44.59122" lon="-0.25348">
        <ele>-24</ele>
        <time>2016-04-17T12:44:38Z</time>
      </trkpt>
      <trkpt lat="44.59131" lon="-0.25349">
        <ele>-23</ele>
        <time>2016-04-17T12:44:45Z</time>
      </trkpt>
      <trkpt lat="44.59139" lon="-0.25351">
        <ele>-23</ele>
        <time>2016-04-17T12:44:52Z</time>
      </trkpt>
      <trkpt lat="44.59147" lon="-0.25353">
        <ele>-23</ele>
        <time>2016-04-17T12:45:00Z</time>
      </trkpt>
      <trkpt lat="44.59155" lon="-0.25356">
        <ele>-23</ele>
        <time>2016-04-17T12:45:08Z</time>
      </trkpt>
      <trkpt lat="44.59159" lon="-0.25357">
        <ele>-23</ele>
        <time>2016-04-17T12:45:18Z</time>
      </trkpt>
      <trkpt lat="44.59168" lon="-0.2536">
        <ele>-22</ele>
        <time>2016-04-17T12:45:22Z</time>
      </trkpt>
      <trkpt lat="44.59176" lon="-0.25361">
        <ele>-22</ele>
        <time>2016-04-17T12:45:29Z</time>
      </trkpt>
      <trkpt lat="44.59184" lon="-0.25361">
        <ele>-22</ele>
        <time>2016-04-17T12:45:35Z</time>
      </trkpt>
      <trkpt lat="44.59193" lon="-0.2536">
        <ele>-21</ele>
        <time>2016-04-17T12:45:42Z</time>
      </trkpt>
      <trkpt lat="44.59201" lon="-0.25359">
        <ele>-21</ele>
        <time>2016-04-17T12:45:50Z</time>
      </trkpt>
      <trkpt lat="44.59209" lon="-0.25359">
        <ele>-20</ele>
        <time>2016-04-17T12:45:56Z</time>
      </trkpt>
      <trkpt lat="44.59218" lon="-0.25357">
        <ele>-20</ele>
        <time>2016-04-17T12:46:04Z</time>
      </trkpt>
      <trkpt lat="44.59226" lon="-0.25354">
        <ele>-19</ele>
        <time>2016-04-17T12:46:12Z</time>
      </trkpt>
      <trkpt lat="44.59234" lon="-0.25349">
        <ele>-19</ele>
        <time>2016-04-17T12:46:20Z</time>
      </trkpt>
      <trkpt lat="44.59241" lon="-0.25344">
        <ele>-18</ele>
        <time>2016-04-17T12:46:27Z</time>
      </trkpt>
      <trkpt lat="44.59249" lon="-0.2534">
        <ele>-18</ele>
        <time>2016-04-17T12:46:34Z</time>
      </trkpt>
      <trkpt lat="44.59256" lon="-0.25334">
        <ele>-18</ele>
        <time>2016-04-17T12:46:42Z</time>
      </trkpt>
      <trkpt lat="44.59264" lon="-0.25329">
        <ele>-17</ele>
        <time>2016-04-17T12:46:50Z</time>
      </trkpt>
      <trkpt lat="44.59272" lon="-0.25325">
        <ele>-17</ele>
        <time>2016-04-17T12:46:57Z</time>
      </trkpt>
      <trkpt lat="44.59279" lon="-0.2532">
        <ele>-17</ele>
        <time>2016-04-17T12:47:04Z</time>
      </trkpt>
      <trkpt lat="44.59287" lon="-0.25315">
        <ele>-17</ele>
        <time>2016-04-17T12:47:11Z</time>
      </trkpt>
      <trkpt lat="44.59294" lon="-0.25311">
        <ele>-17</ele>
        <time>2016-04-17T12:47:19Z</time>
      </trkpt>
      <trkpt lat="44.59302" lon="-0.25305">
        <ele>-17</ele>
        <time>2016-04-17T12:47:27Z</time>
      </trkpt>
      <trkpt lat="44.59309" lon="-0.25301">
        <ele>-17</ele>
        <time>2016-04-17T12:47:34Z</time>
      </trkpt>
      <trkpt lat="44.59316" lon="-0.25295">
        <ele>-16</ele>
        <time>2016-04-17T12:47:41Z</time>
      </trkpt>
      <trkpt lat="44.59323" lon="-0.2529">
        <ele>-16</ele>
        <time>2016-04-17T12:47:47Z</time>
      </trkpt>
      <trkpt lat="44.59332" lon="-0.25286">
        <ele>-16</ele>
        <time>2016-04-17T12:47:54Z</time>
      </trkpt>
      <trkpt lat="44.59339" lon="-0.2528">
        <ele>-16</ele>
        <time>2016-04-17T12:48:02Z</time>
      </trkpt>
      <trkpt lat="44.59347" lon="-0.25276">
        <ele>-16</ele>
        <time>2016-04-17T12:48:09Z</time>
      </trkpt>
      <trkpt lat="44.59355" lon="-0.25274">
        <ele>-16</ele>
        <time>2016-04-17T12:48:16Z</time>
      </trkpt>
      <trkpt lat="44.59363" lon="-0.25271">
        <ele>-16</ele>
        <time>2016-04-17T12:48:23Z</time>
      </trkpt>
      <trkpt lat="44.59371" lon="-0.2527">
        <ele>-17</ele>
        <time>2016-04-17T12:48:31Z</time>
      </trkpt>
      <trkpt lat="44.59379" lon="-0.2527">
        <ele>-16</ele>
        <time>2016-04-17T12:48:38Z</time>
      </trkpt>
      <trkpt lat="44.59388" lon="-0.25269">
        <ele>-16</ele>
        <time>2016-04-17T12:48:44Z</time>
      </trkpt>
      <trkpt lat="44.59396" lon="-0.25267">
        <ele>-16</ele>
        <time>2016-04-17T12:48:52Z</time>
      </trkpt>
      <trkpt lat="44.59405" lon="-0.25266">
        <ele>-17</ele>
        <time>2016-04-17T12:49:00Z</time>
      </trkpt>
      <trkpt lat="44.59414" lon="-0.25264">
        <ele>-17</ele>
        <time>2016-04-17T12:49:09Z</time>
      </trkpt>
      <trkpt lat="44.59422" lon="-0.25265">
        <ele>-18</ele>
        <time>2016-04-17T12:49:17Z</time>
      </trkpt>
      <trkpt lat="44.5943" lon="-0.25264">
        <ele>-18</ele>
        <time>2016-04-17T12:49:25Z</time>
      </trkpt>
      <trkpt lat="44.59431" lon="-0.25264">
        <ele>-18</ele>
        <time>2016-04-17T12:49:36Z</time>
      </trkpt>
      <trkpt lat="44.59442" lon="-0.25255">
        <ele>-19</ele>
        <time>2016-04-17T12:49:40Z</time>
      </trkpt>
      <trkpt lat="44.59448" lon="-0.25248">
        <ele>-19</ele>
        <time>2016-04-17T12:49:49Z</time>
      </trkpt>
      <trkpt lat="44.59456" lon="-0.25245">
        <ele>-20</ele>
        <time>2016-04-17T12:49:57Z</time>
      </trkpt>
      <trkpt lat="44.59464" lon="-0.25242">
        <ele>-20</ele>
        <time>2016-04-17T12:50:13Z</time>
      </trkpt>
      <trkpt lat="44.59475" lon="-0.25242">
        <ele>-20</ele>
        <time>2016-04-17T12:50:18Z</time>
      </trkpt>
      <trkpt lat="44.59475" lon="-0.25242">
        <ele>-20</ele>
        <time>2016-04-17T12:50:25Z</time>
      </trkpt>
      <trkpt lat="44.59485" lon="-0.25243">
        <ele>-21</ele>
        <time>2016-04-17T12:50:30Z</time>
      </trkpt>
      <trkpt lat="44.59494" lon="-0.25247">
        <ele>-21</ele>
        <time>2016-04-17T12:50:37Z</time>
      </trkpt>
      <trkpt lat="44.59502" lon="-0.2525">
        <ele>-21</ele>
        <time>2016-04-17T12:50:43Z</time>
      </trkpt>
      <trkpt lat="44.5951" lon="-0.25256">
        <ele>-21</ele>
        <time>2016-04-17T12:50:51Z</time>
      </trkpt>
      <trkpt lat="44.59517" lon="-0.25262">
        <ele>-21</ele>
        <time>2016-04-17T12:50:58Z</time>
      </trkpt>
      <trkpt lat="44.59524" lon="-0.25268">
        <ele>-21</ele>
        <time>2016-04-17T12:51:04Z</time>
      </trkpt>
      <trkpt lat="44.59527" lon="-0.25268">
        <ele>-21</ele>
        <time>2016-04-17T12:51:17Z</time>
      </trkpt>
      <trkpt lat="44.59539" lon="-0.25272">
        <ele>-21</ele>
        <time>2016-04-17T12:51:22Z</time>
      </trkpt>
      <trkpt lat="44.59545" lon="-0.25276">
        <ele>-21</ele>
        <time>2016-04-17T12:51:32Z</time>
      </trkpt>
      <trkpt lat="44.59553" lon="-0.25281">
        <ele>-21</ele>
        <time>2016-04-17T12:51:37Z</time>
      </trkpt>
      <trkpt lat="44.59554" lon="-0.25282">
        <ele>-21</ele>
        <time>2016-04-17T12:51:45Z</time>
      </trkpt>
      <trkpt lat="44.59569" lon="-0.2529">
        <ele>-23</ele>
        <time>2016-04-17T12:51:49Z</time>
      </trkpt>
      <trkpt lat="44.59569" lon="-0.2529">
        <ele>-23</ele>
        <time>2016-04-17T12:51:55Z</time>
      </trkpt>
      <trkpt lat="44.59581" lon="-0.25293">
        <ele>-24</ele>
        <time>2016-04-17T12:52:00Z</time>
      </trkpt>
      <trkpt lat="44.59588" lon="-0.25294">
        <ele>-25</ele>
        <time>2016-04-17T12:52:04Z</time>
      </trkpt>
      <trkpt lat="44.59595" lon="-0.25293">
        <ele>-25</ele>
        <time>2016-04-17T12:52:08Z</time>
      </trkpt>
      <trkpt lat="44.59603" lon="-0.25293">
        <ele>-26</ele>
        <time>2016-04-17T12:52:13Z</time>
      </trkpt>
      <trkpt lat="44.59612" lon="-0.25294">
        <ele>-27</ele>
        <time>2016-04-17T12:52:20Z</time>
      </trkpt>
      <trkpt lat="44.5962" lon="-0.25293">
        <ele>-28</ele>
        <time>2016-04-17T12:52:27Z</time>
      </trkpt>
      <trkpt lat="44.59627" lon="-0.25287">
        <ele>-29</ele>
        <time>2016-04-17T12:52:34Z</time>
      </trkpt>
      <trkpt lat="44.59631" lon="-0.25285">
        <ele>-30</ele>
        <time>2016-04-17T12:54:36Z</time>
      </trkpt>
      <trkpt lat="44.59638" lon="-0.25291">
        <ele>-30</ele>
        <time>2016-04-17T12:55:01Z</time>
      </trkpt>
      <trkpt lat="44.59654" lon="-0.25294">
        <ele>-33</ele>
        <time>2016-04-17T12:55:06Z</time>
      </trkpt>
      <trkpt lat="44.59656" lon="-0.25296">
        <ele>-34</ele>
        <time>2016-04-17T12:55:18Z</time>
      </trkpt>
      <trkpt lat="44.59668" lon="-0.25309">
        <ele>-35</ele>
        <time>2016-04-17T12:55:23Z</time>
      </trkpt>
      <trkpt lat="44.59674" lon="-0.25315">
        <ele>-35</ele>
        <time>2016-04-17T12:55:31Z</time>
      </trkpt>
      <trkpt lat="44.59682" lon="-0.25322">
        <ele>-35</ele>
        <time>2016-04-17T12:55:39Z</time>
      </trkpt>
      <trkpt lat="44.59688" lon="-0.2533">
        <ele>-34</ele>
        <time>2016-04-17T12:55:47Z</time>
      </trkpt>
      <trkpt lat="44.59694" lon="-0.25336">
        <ele>-34</ele>
        <time>2016-04-17T12:55:59Z</time>
      </trkpt>
      <trkpt lat="44.59704" lon="-0.25341">
        <ele>-34</ele>
        <time>2016-04-17T12:56:04Z</time>
      </trkpt>
      <trkpt lat="44.59712" lon="-0.25347">
        <ele>-33</ele>
        <time>2016-04-17T12:56:16Z</time>
      </trkpt>
      <trkpt lat="44.5972" lon="-0.25347">
        <ele>-33</ele>
        <time>2016-04-17T12:56:24Z</time>
      </trkpt>
      <trkpt lat="44.59728" lon="-0.25347">
        <ele>-32</ele>
        <time>2016-04-17T12:56:30Z</time>
      </trkpt>
      <trkpt lat="44.59736" lon="-0.25347">
        <ele>-32</ele>
        <time>2016-04-17T12:56:35Z</time>
      </trkpt>
      <trkpt lat="44.59743" lon="-0.25346">
        <ele>-32</ele>
        <time>2016-04-17T12:56:41Z</time>
      </trkpt>
      <trkpt lat="44.59751" lon="-0.25346">
        <ele>-31</ele>
        <time>2016-04-17T12:56:48Z</time>
      </trkpt>
      <trkpt lat="44.5976" lon="-0.25348">
        <ele>-31</ele>
        <time>2016-04-17T12:56:56Z</time>
      </trkpt>
      <trkpt lat="44.59768" lon="-0.25352">
        <ele>-31</ele>
        <time>2016-04-17T12:57:02Z</time>
      </trkpt>
      <trkpt lat="44.59776" lon="-0.25354">
        <ele>-30</ele>
        <time>2016-04-17T12:57:08Z</time>
      </trkpt>
      <trkpt lat="44.59784" lon="-0.25357">
        <ele>-30</ele>
        <time>2016-04-17T12:57:16Z</time>
      </trkpt>
      <trkpt lat="44.59793" lon="-0.25361">
        <ele>-29</ele>
        <time>2016-04-17T12:57:26Z</time>
      </trkpt>
      <trkpt lat="44.598" lon="-0.25364">
        <ele>-29</ele>
        <time>2016-04-17T12:57:32Z</time>
      </trkpt>
      <trkpt lat="44.59808" lon="-0.25367">
        <ele>-29</ele>
        <time>2016-04-17T12:57:38Z</time>
      </trkpt>
      <trkpt lat="44.59816" lon="-0.25369">
        <ele>-29</ele>
        <time>2016-04-17T12:57:49Z</time>
      </trkpt>
      <trkpt lat="44.59823" lon="-0.25376">
        <ele>-30</ele>
        <time>2016-04-17T12:57:54Z</time>
      </trkpt>
      <trkpt lat="44.59825" lon="-0.25378">
        <ele>-30</ele>
        <time>2016-04-17T12:58:17Z</time>
      </trkpt>
      <trkpt lat="44.59833" lon="-0.25394">
        <ele>-41</ele>
        <time>2016-04-17T12:58:21Z</time>
      </trkpt>
      <trkpt lat="44.5984" lon="-0.25401">
        <ele>-46</ele>
        <time>2016-04-17T12:58:28Z</time>
      </trkpt>
      <trkpt lat="44.59848" lon="-0.25405">
        <ele>-51</ele>
        <time>2016-04-17T12:58:35Z</time>
      </trkpt>
      <trkpt lat="44.5985" lon="-0.25402">
        <ele>-51</ele>
        <time>2016-04-17T12:58:47Z</time>
      </trkpt>
      <trkpt lat="44.59863" lon="-0.25407">
        <ele>-57</ele>
        <time>2016-04-17T12:58:51Z</time>
      </trkpt>
      <trkpt lat="44.59872" lon="-0.25411">
        <ele>-56</ele>
        <time>2016-04-17T12:58:56Z</time>
      </trkpt>
      <trkpt lat="44.59872" lon="-0.25411">
        <ele>-56</ele>
        <time>2016-04-17T12:59:03Z</time>
      </trkpt>
      <trkpt lat="44.59883" lon="-0.25407">
        <ele>-55</ele>
        <time>2016-04-17T12:59:07Z</time>
      </trkpt>
      <trkpt lat="44.59883" lon="-0.25407">
        <ele>-55</ele>
        <time>2016-04-17T12:59:17Z</time>
      </trkpt>
      <trkpt lat="44.59896" lon="-0.25413">
        <ele>-54</ele>
        <time>2016-04-17T12:59:21Z</time>
      </trkpt>
      <trkpt lat="44.59903" lon="-0.25418">
        <ele>-53</ele>
        <time>2016-04-17T12:59:33Z</time>
      </trkpt>
      <trkpt lat="44.59912" lon="-0.25421">
        <ele>-53</ele>
        <time>2016-04-17T12:59:42Z</time>
      </trkpt>
      <trkpt lat="44.5992" lon="-0.25425">
        <ele>-52</ele>
        <time>2016-04-17T12:59:51Z</time>
      </trkpt>
      <trkpt lat="44.59927" lon="-0.25429">
        <ele>-52</ele>
        <time>2016-04-17T12:59:58Z</time>
      </trkpt>
      <trkpt lat="44.59935" lon="-0.25432">
        <ele>-51</ele>
        <time>2016-04-17T13:00:04Z</time>
      </trkpt>
      <trkpt lat="44.59943" lon="-0.25435">
        <ele>-50</ele>
        <time>2016-04-17T13:00:09Z</time>
      </trkpt>
      <trkpt lat="44.5995" lon="-0.25439">
        <ele>-49</ele>
        <time>2016-04-17T13:00:15Z</time>
      </trkpt>
      <trkpt lat="44.59958" lon="-0.25443">
        <ele>-48</ele>
        <time>2016-04-17T13:00:19Z</time>
      </trkpt>
      <trkpt lat="44.59965" lon="-0.25447">
        <ele>-46</ele>
        <time>2016-04-17T13:00:24Z</time>
      </trkpt>
      <trkpt lat="44.59974" lon="-0.25451">
        <ele>-44</ele>
        <time>2016-04-17T13:00:29Z</time>
      </trkpt>
      <trkpt lat="44.59981" lon="-0.25456">
        <ele>-42</ele>
        <time>2016-04-17T13:00:35Z</time>
      </trkpt>
      <trkpt lat="44.5999" lon="-0.2546">
        <ele>-40</ele>
        <time>2016-04-17T13:00:40Z</time>
      </trkpt>
      <trkpt lat="44.59998" lon="-0.25465">
        <ele>-39</ele>
        <time>2016-04-17T13:00:46Z</time>
      </trkpt>
      <trkpt lat="44.60006" lon="-0.25469">
        <ele>-37</ele>
        <time>2016-04-17T13:00:51Z</time>
      </trkpt>
      <trkpt lat="44.60014" lon="-0.25473">
        <ele>-35</ele>
        <time>2016-04-17T13:00:57Z</time>
      </trkpt>
      <trkpt lat="44.60022" lon="-0.25475">
        <ele>-34</ele>
        <time>2016-04-17T13:01:03Z</time>
      </trkpt>
      <trkpt lat="44.6003" lon="-0.25477">
        <ele>-32</ele>
        <time>2016-04-17T13:01:09Z</time>
      </trkpt>
      <trkpt lat="44.60038" lon="-0.25483">
        <ele>-30</ele>
        <time>2016-04-17T13:01:14Z</time>
      </trkpt>
      <trkpt lat="44.60046" lon="-0.25486">
        <ele>-28</ele>
        <time>2016-04-17T13:01:20Z</time>
      </trkpt>
      <trkpt lat="44.60055" lon="-0.25487">
        <ele>-27</ele>
        <time>2016-04-17T13:01:27Z</time>
      </trkpt>
      <trkpt lat="44.60063" lon="-0.25487">
        <ele>-26</ele>
        <time>2016-04-17T13:01:33Z</time>
      </trkpt>
      <trkpt lat="44.60071" lon="-0.25486">
        <ele>-24</ele>
        <time>2016-04-17T13:01:40Z</time>
      </trkpt>
      <trkpt lat="44.60079" lon="-0.25489">
        <ele>-23</ele>
        <time>2016-04-17T13:01:46Z</time>
      </trkpt>
      <trkpt lat="44.60087" lon="-0.25491">
        <ele>-22</ele>
        <time>2016-04-17T13:01:52Z</time>
      </trkpt>
      <trkpt lat="44.60091" lon="-0.25493">
        <ele>-21</ele>
        <time>2016-04-17T13:02:03Z</time>
      </trkpt>
      <trkpt lat="44.60103" lon="-0.25503">
        <ele>-19</ele>
        <time>2016-04-17T13:02:08Z</time>
      </trkpt>
      <trkpt lat="44.60106" lon="-0.25506">
        <ele>-18</ele>
        <time>2016-04-17T13:02:18Z</time>
      </trkpt>
      <trkpt lat="44.60116" lon="-0.25517">
        <ele>-18</ele>
        <time>2016-04-17T13:02:22Z</time>
      </trkpt>
      <trkpt lat="44.6012" lon="-0.25521">
        <ele>-18</ele>
        <time>2016-04-17T13:02:32Z</time>
      </trkpt>
      <trkpt lat="44.60128" lon="-0.25528">
        <ele>-19</ele>
        <time>2016-04-17T13:02:36Z</time>
      </trkpt>
      <trkpt lat="44.60134" lon="-0.25534">
        <ele>-20</ele>
        <time>2016-04-17T13:02:43Z</time>
      </trkpt>
      <trkpt lat="44.6014" lon="-0.2554">
        <ele>-21</ele>
        <time>2016-04-17T13:02:49Z</time>
      </trkpt>
      <trkpt lat="44.60144" lon="-0.25546">
        <ele>-21</ele>
        <time>2016-04-17T13:02:58Z</time>
      </trkpt>
      <trkpt lat="44.60144" lon="-0.25557">
        <ele>-21</ele>
        <time>2016-04-17T13:03:04Z</time>
      </trkpt>
      <trkpt lat="44.60144" lon="-0.2557">
        <ele>-21</ele>
        <time>2016-04-17T13:03:17Z</time>
      </trkpt>
      <trkpt lat="44.6014" lon="-0.25586">
        <ele>-21</ele>
        <time>2016-04-17T13:03:21Z</time>
      </trkpt>
      <trkpt lat="44.60137" lon="-0.25596">
        <ele>-22</ele>
        <time>2016-04-17T13:03:27Z</time>
      </trkpt>
      <trkpt lat="44.60134" lon="-0.25607">
        <ele>-23</ele>
        <time>2016-04-17T13:03:34Z</time>
      </trkpt>
      <trkpt lat="44.60133" lon="-0.25613">
        <ele>-23</ele>
        <time>2016-04-17T13:03:50Z</time>
      </trkpt>
      <trkpt lat="44.6013" lon="-0.25629">
        <ele>-22</ele>
        <time>2016-04-17T13:03:54Z</time>
      </trkpt>
      <trkpt lat="44.6013" lon="-0.25629">
        <ele>-22</ele>
        <time>2016-04-17T13:04:04Z</time>
      </trkpt>
      <trkpt lat="44.60125" lon="-0.25645">
        <ele>-20</ele>
        <time>2016-04-17T13:04:08Z</time>
      </trkpt>
      <trkpt lat="44.60125" lon="-0.25645">
        <ele>-20</ele>
        <time>2016-04-17T13:04:14Z</time>
      </trkpt>
      <trkpt lat="44.6012" lon="-0.25659">
        <ele>-19</ele>
        <time>2016-04-17T13:04:18Z</time>
      </trkpt>
      <trkpt lat="44.60121" lon="-0.25674">
        <ele>-18</ele>
        <time>2016-04-17T13:04:23Z</time>
      </trkpt>
      <trkpt lat="44.60118" lon="-0.25684">
        <ele>-16</ele>
        <time>2016-04-17T13:04:30Z</time>
      </trkpt>
      <trkpt lat="44.60117" lon="-0.25686">
        <ele>-16</ele>
        <time>2016-04-17T13:04:39Z</time>
      </trkpt>
      <trkpt lat="44.60112" lon="-0.25699">
        <ele>-13</ele>
        <time>2016-04-17T13:04:43Z</time>
      </trkpt>
      <trkpt lat="44.60105" lon="-0.25706">
        <ele>-10</ele>
        <time>2016-04-17T13:04:51Z</time>
      </trkpt>
      <trkpt lat="44.60098" lon="-0.25713">
        <ele>-9</ele>
        <time>2016-04-17T13:05:05Z</time>
      </trkpt>
      <trkpt lat="44.60092" lon="-0.25721">
        <ele>-7</ele>
        <time>2016-04-17T13:05:15Z</time>
      </trkpt>
      <trkpt lat="44.60084" lon="-0.25725">
        <ele>-6</ele>
        <time>2016-04-17T13:05:19Z</time>
      </trkpt>
      <trkpt lat="44.60076" lon="-0.25727">
        <ele>-4</ele>
        <time>2016-04-17T13:05:27Z</time>
      </trkpt>
      <trkpt lat="44.60071" lon="-0.25728">
        <ele>-4</ele>
        <time>2016-04-17T13:05:39Z</time>
      </trkpt>
      <trkpt lat="44.60059" lon="-0.25731">
        <ele>-2</ele>
        <time>2016-04-17T13:05:43Z</time>
      </trkpt>
      <trkpt lat="44.60051" lon="-0.25733">
        <ele>52</ele>
        <time>2016-04-17T13:05:51Z</time>
      </trkpt>
      <trkpt lat="44.60043" lon="-0.25736">
        <ele>53.1</ele>
        <time>2016-04-17T13:06:00Z</time>
      </trkpt>
      <trkpt lat="44.60035" lon="-0.25737">
        <ele>54.1</ele>
        <time>2016-04-17T13:06:06Z</time>
      </trkpt>
      <trkpt lat="44.60026" lon="-0.25737">
        <ele>55.1</ele>
        <time>2016-04-17T13:06:13Z</time>
      </trkpt>
      <trkpt lat="44.60018" lon="-0.25739">
        <ele>55.6</ele>
        <time>2016-04-17T13:06:21Z</time>
      </trkpt>
      <trkpt lat="44.6001" lon="-0.25743">
        <ele>56.2</ele>
        <time>2016-04-17T13:06:31Z</time>
      </trkpt>
      <trkpt lat="44.60001" lon="-0.25745">
        <ele>56.8</ele>
        <time>2016-04-17T13:06:39Z</time>
      </trkpt>
      <trkpt lat="44.59993" lon="-0.25748">
        <ele>56.9</ele>
        <time>2016-04-17T13:06:46Z</time>
      </trkpt>
      <trkpt lat="44.59985" lon="-0.25752">
        <ele>1</ele>
        <time>2016-04-17T13:06:55Z</time>
      </trkpt>
      <trkpt lat="44.59978" lon="-0.25756">
        <ele>1</ele>
        <time>2016-04-17T13:07:02Z</time>
      </trkpt>
      <trkpt lat="44.5997" lon="-0.25762">
        <ele>2</ele>
        <time>2016-04-17T13:07:10Z</time>
      </trkpt>
      <trkpt lat="44.59963" lon="-0.25767">
        <ele>3</ele>
        <time>2016-04-17T13:07:17Z</time>
      </trkpt>
      <trkpt lat="44.59956" lon="-0.25773">
        <ele>3</ele>
        <time>2016-04-17T13:07:36Z</time>
      </trkpt>
      <trkpt lat="44.59945" lon="-0.25785">
        <ele>2</ele>
        <time>2016-04-17T13:07:41Z</time>
      </trkpt>
      <trkpt lat="44.59938" lon="-0.25793">
        <ele>2</ele>
        <time>2016-04-17T13:07:49Z</time>
      </trkpt>
      <trkpt lat="44.59933" lon="-0.25802">
        <ele>1</ele>
        <time>2016-04-17T13:07:56Z</time>
      </trkpt>
      <trkpt lat="44.59926" lon="-0.25809">
        <ele>2</ele>
        <time>2016-04-17T13:08:02Z</time>
      </trkpt>
      <trkpt lat="44.59919" lon="-0.25816">
        <ele>1</ele>
        <time>2016-04-17T13:08:09Z</time>
      </trkpt>
      <trkpt lat="44.59912" lon="-0.25824">
        <ele>1</ele>
        <time>2016-04-17T13:08:16Z</time>
      </trkpt>
      <trkpt lat="44.59904" lon="-0.2583">
        <ele>1</ele>
        <time>2016-04-17T13:08:24Z</time>
      </trkpt>
      <trkpt lat="44.59899" lon="-0.25839">
        <ele>1</ele>
        <time>2016-04-17T13:08:33Z</time>
      </trkpt>
      <trkpt lat="44.59892" lon="-0.25846">
        <ele>1</ele>
        <time>2016-04-17T13:08:39Z</time>
      </trkpt>
      <trkpt lat="44.59886" lon="-0.25854">
        <ele>1</ele>
        <time>2016-04-17T13:08:47Z</time>
      </trkpt>
      <trkpt lat="44.5988" lon="-0.25861">
        <ele>1</ele>
        <time>2016-04-17T13:08:54Z</time>
      </trkpt>
      <trkpt lat="44.59874" lon="-0.2587">
        <ele>1</ele>
        <time>2016-04-17T13:09:02Z</time>
      </trkpt>
      <trkpt lat="44.59868" lon="-0.25879">
        <ele>1</ele>
        <time>2016-04-17T13:09:09Z</time>
      </trkpt>
      <trkpt lat="44.59863" lon="-0.25889">
        <ele>1</ele>
        <time>2016-04-17T13:09:17Z</time>
      </trkpt>
      <trkpt lat="44.59858" lon="-0.25899">
        <ele>2</ele>
        <time>2016-04-17T13:09:25Z</time>
      </trkpt>
      <trkpt lat="44.59856" lon="-0.2591">
        <ele>2</ele>
        <time>2016-04-17T13:09:36Z</time>
      </trkpt>
      <trkpt lat="44.59849" lon="-0.25917">
        <ele>2</ele>
        <time>2016-04-17T13:09:44Z</time>
      </trkpt>
      <trkpt lat="44.59844" lon="-0.25925">
        <ele>3</ele>
        <time>2016-04-17T13:09:50Z</time>
      </trkpt>
      <trkpt lat="44.59838" lon="-0.25934">
        <ele>3</ele>
        <time>2016-04-17T13:09:57Z</time>
      </trkpt>
      <trkpt lat="44.59833" lon="-0.25944">
        <ele>4</ele>
        <time>2016-04-17T13:10:04Z</time>
      </trkpt>
      <trkpt lat="44.59832" lon="-0.25949">
        <ele>4</ele>
        <time>2016-04-17T13:14:02Z</time>
      </trkpt>
      <trkpt lat="44.59824" lon="-0.25959">
        <ele>2</ele>
        <time>2016-04-17T13:14:07Z</time>
      </trkpt>
      <trkpt lat="44.59824" lon="-0.25959">
        <ele>2</ele>
        <time>2016-04-17T13:14:43Z</time>
      </trkpt>
      <trkpt lat="44.59822" lon="-0.25975">
        <ele>1</ele>
        <time>2016-04-17T13:14:48Z</time>
      </trkpt>
      <trkpt lat="44.5982" lon="-0.25987">
        <ele>1</ele>
        <time>2016-04-17T13:14:56Z</time>
      </trkpt>
      <trkpt lat="44.59818" lon="-0.25999">
        <ele>1</ele>
        <time>2016-04-17T13:15:04Z</time>
      </trkpt>
      <trkpt lat="44.59816" lon="-0.26009">
        <ele>1</ele>
        <time>2016-04-17T13:15:12Z</time>
      </trkpt>
      <trkpt lat="44.59814" lon="-0.26021">
        <ele>1</ele>
        <time>2016-04-17T13:15:21Z</time>
      </trkpt>
      <trkpt lat="44.5981" lon="-0.26032">
        <ele>1</ele>
        <time>2016-04-17T13:15:31Z</time>
      </trkpt>
      <trkpt lat="44.59806" lon="-0.26042">
        <ele>2</ele>
        <time>2016-04-17T13:15:38Z</time>
      </trkpt>
      <trkpt lat="44.59802" lon="-0.26051">
        <ele>3</ele>
        <time>2016-04-17T13:15:46Z</time>
      </trkpt>
      <trkpt lat="44.59797" lon="-0.26061">
        <ele>4</ele>
        <time>2016-04-17T13:15:54Z</time>
      </trkpt>
      <trkpt lat="44.59793" lon="-0.26072">
        <ele>6</ele>
        <time>2016-04-17T13:16:02Z</time>
      </trkpt>
      <trkpt lat="44.59788" lon="-0.26081">
        <ele>7</ele>
        <time>2016-04-17T13:16:10Z</time>
      </trkpt>
      <trkpt lat="44.59782" lon="-0.26091">
        <ele>8</ele>
        <time>2016-04-17T13:16:18Z</time>
      </trkpt>
      <trkpt lat="44.59778" lon="-0.261">
        <ele>9</ele>
        <time>2016-04-17T13:16:25Z</time>
      </trkpt>
      <trkpt lat="44.59773" lon="-0.26109">
        <ele>10</ele>
        <time>2016-04-17T13:16:32Z</time>
      </trkpt>
      <trkpt lat="44.59768" lon="-0.2612">
        <ele>11</ele>
        <time>2016-04-17T13:16:40Z</time>
      </trkpt>
      <trkpt lat="44.59762" lon="-0.26127">
        <ele>12</ele>
        <time>2016-04-17T13:16:48Z</time>
      </trkpt>
      <trkpt lat="44.59755" lon="-0.26133">
        <ele>13</ele>
        <time>2016-04-17T13:16:55Z</time>
      </trkpt>
      <trkpt lat="44.59749" lon="-0.26138">
        <ele>14</ele>
        <time>2016-04-17T13:17:07Z</time>
      </trkpt>
      <trkpt lat="44.59739" lon="-0.26148">
        <ele>14</ele>
        <time>2016-04-17T13:17:12Z</time>
      </trkpt>
      <trkpt lat="44.59734" lon="-0.26158">
        <ele>14</ele>
        <time>2016-04-17T13:17:20Z</time>
      </trkpt>
      <trkpt lat="44.59729" lon="-0.26168">
        <ele>14</ele>
        <time>2016-04-17T13:17:29Z</time>
      </trkpt>
      <trkpt lat="44.59725" lon="-0.26178">
        <ele>14</ele>
        <time>2016-04-17T13:17:37Z</time>
      </trkpt>
      <trkpt lat="44.59721" lon="-0.26188">
        <ele>14</ele>
        <time>2016-04-17T13:17:45Z</time>
      </trkpt>
      <trkpt lat="44.59716" lon="-0.26198">
        <ele>14</ele>
        <time>2016-04-17T13:17:52Z</time>
      </trkpt>
      <trkpt lat="44.59715" lon="-0.26204">
        <ele>14</ele>
        <time>2016-04-17T13:18:03Z</time>
      </trkpt>
      <trkpt lat="44.59709" lon="-0.26215">
        <ele>14</ele>
        <time>2016-04-17T13:18:07Z</time>
      </trkpt>
      <trkpt lat="44.59704" lon="-0.26225">
        <ele>15</ele>
        <time>2016-04-17T13:18:16Z</time>
      </trkpt>
      <trkpt lat="44.597" lon="-0.26235">
        <ele>15</ele>
        <time>2016-04-17T13:18:24Z</time>
      </trkpt>
      <trkpt lat="44.59695" lon="-0.26245">
        <ele>16</ele>
        <time>2016-04-17T13:18:32Z</time>
      </trkpt>
      <trkpt lat="44.59692" lon="-0.26257">
        <ele>17</ele>
        <time>2016-04-17T13:18:40Z</time>
      </trkpt>
      <trkpt lat="44.59687" lon="-0.26267">
        <ele>18</ele>
        <time>2016-04-17T13:18:47Z</time>
      </trkpt>
      <trkpt lat="44.59683" lon="-0.26277">
        <ele>19</ele>
        <time>2016-04-17T13:18:54Z</time>
      </trkpt>
      <trkpt lat="44.59677" lon="-0.26286">
        <ele>19</ele>
        <time>2016-04-17T13:19:02Z</time>
      </trkpt>
      <trkpt lat="44.59673" lon="-0.26298">
        <ele>20</ele>
        <time>2016-04-17T13:19:10Z</time>
      </trkpt>
      <trkpt lat="44.59669" lon="-0.26308">
        <ele>21</ele>
        <time>2016-04-17T13:19:18Z</time>
      </trkpt>
      <trkpt lat="44.59665" lon="-0.26318">
        <ele>21</ele>
        <time>2016-04-17T13:19:26Z</time>
      </trkpt>
      <trkpt lat="44.59661" lon="-0.26328">
        <ele>22</ele>
        <time>2016-04-17T13:19:34Z</time>
      </trkpt>
      <trkpt lat="44.59659" lon="-0.26333">
        <ele>22</ele>
        <time>2016-04-17T13:19:52Z</time>
      </trkpt>
      <trkpt lat="44.59653" lon="-0.26347">
        <ele>22</ele>
        <time>2016-04-17T13:19:56Z</time>
      </trkpt>
      <trkpt lat="44.59649" lon="-0.26357">
        <ele>21</ele>
        <time>2016-04-17T13:20:04Z</time>
      </trkpt>
      <trkpt lat="44.59643" lon="-0.26364">
        <ele>21</ele>
        <time>2016-04-17T13:20:10Z</time>
      </trkpt>
      <trkpt lat="44.59636" lon="-0.26372">
        <ele>21</ele>
        <time>2016-04-17T13:20:17Z</time>
      </trkpt>
      <trkpt lat="44.5963" lon="-0.2638">
        <ele>20</ele>
        <time>2016-04-17T13:20:25Z</time>
      </trkpt>
      <trkpt lat="44.59622" lon="-0.26387">
        <ele>20</ele>
        <time>2016-04-17T13:20:33Z</time>
      </trkpt>
      <trkpt lat="44.59619" lon="-0.2639">
        <ele>20</ele>
        <time>2016-04-17T13:20:45Z</time>
      </trkpt>
      <trkpt lat="44.59607" lon="-0.26399">
        <ele>20</ele>
        <time>2016-04-17T13:20:50Z</time>
      </trkpt>
      <trkpt lat="44.59599" lon="-0.26403">
        <ele>20</ele>
        <time>2016-04-17T13:20:55Z</time>
      </trkpt>
      <trkpt lat="44.59593" lon="-0.26411">
        <ele>20</ele>
        <time>2016-04-17T13:21:01Z</time>
      </trkpt>
      <trkpt lat="44.59587" lon="-0.2642">
        <ele>20</ele>
        <time>2016-04-17T13:21:09Z</time>
      </trkpt>
      <trkpt lat="44.5958" lon="-0.26426">
        <ele>20</ele>
        <time>2016-04-17T13:21:16Z</time>
      </trkpt>
      <trkpt lat="44.59573" lon="-0.26433">
        <ele>21</ele>
        <time>2016-04-17T13:21:24Z</time>
      </trkpt>
      <trkpt lat="44.59569" lon="-0.26441">
        <ele>21</ele>
        <time>2016-04-17T13:21:35Z</time>
      </trkpt>
      <trkpt lat="44.59566" lon="-0.26453">
        <ele>24</ele>
        <time>2016-04-17T13:21:39Z</time>
      </trkpt>
      <trkpt lat="44.59563" lon="-0.26456">
        <ele>24</ele>
        <time>2016-04-17T13:22:50Z</time>
      </trkpt>
      <trkpt lat="44.59556" lon="-0.26465">
        <ele>25</ele>
        <time>2016-04-17T13:22:54Z</time>
      </trkpt>
      <trkpt lat="44.59556" lon="-0.26465">
        <ele>25</ele>
        <time>2016-04-17T13:25:28Z</time>
      </trkpt>
      <trkpt lat="44.59557" lon="-0.26481">
        <ele>25</ele>
        <time>2016-04-17T13:25:32Z</time>
      </trkpt>
      <trkpt lat="44.59556" lon="-0.26492">
        <ele>25</ele>
        <time>2016-04-17T13:25:40Z</time>
      </trkpt>
      <trkpt lat="44.59556" lon="-0.26504">
        <ele>25</ele>
        <time>2016-04-17T13:25:48Z</time>
      </trkpt>
      <trkpt lat="44.59558" lon="-0.26516">
        <ele>25</ele>
        <time>2016-04-17T13:25:56Z</time>
      </trkpt>
      <trkpt lat="44.59556" lon="-0.26527">
        <ele>25</ele>
        <time>2016-04-17T13:26:03Z</time>
      </trkpt>
      <trkpt lat="44.59557" lon="-0.2654">
        <ele>25</ele>
        <time>2016-04-17T13:26:11Z</time>
      </trkpt>
      <trkpt lat="44.59559" lon="-0.26552">
        <ele>25</ele>
        <time>2016-04-17T13:26:18Z</time>
      </trkpt>
      <trkpt lat="44.59561" lon="-0.26564">
        <ele>25</ele>
        <time>2016-04-17T13:26:26Z</time>
      </trkpt>
      <trkpt lat="44.59561" lon="-0.26576">
        <ele>25</ele>
        <time>2016-04-17T13:26:34Z</time>
      </trkpt>
      <trkpt lat="44.59563" lon="-0.26588">
        <ele>25</ele>
        <time>2016-04-17T13:26:42Z</time>
      </trkpt>
      <trkpt lat="44.59564" lon="-0.266">
        <ele>25</ele>
        <time>2016-04-17T13:26:48Z</time>
      </trkpt>
      <trkpt lat="44.59565" lon="-0.26611">
        <ele>25</ele>
        <time>2016-04-17T13:26:54Z</time>
      </trkpt>
      <trkpt lat="44.59567" lon="-0.26622">
        <ele>25</ele>
        <time>2016-04-17T13:27:01Z</time>
      </trkpt>
      <trkpt lat="44.59568" lon="-0.26634">
        <ele>25</ele>
        <time>2016-04-17T13:27:09Z</time>
      </trkpt>
      <trkpt lat="44.59569" lon="-0.26645">
        <ele>26</ele>
        <time>2016-04-17T13:27:16Z</time>
      </trkpt>
      <trkpt lat="44.59571" lon="-0.26657">
        <ele>26</ele>
        <time>2016-04-17T13:27:24Z</time>
      </trkpt>
      <trkpt lat="44.59572" lon="-0.26669">
        <ele>27</ele>
        <time>2016-04-17T13:27:29Z</time>
      </trkpt>
      <trkpt lat="44.59571" lon="-0.26681">
        <ele>27</ele>
        <time>2016-04-17T13:27:36Z</time>
      </trkpt>
      <trkpt lat="44.59571" lon="-0.26693">
        <ele>28</ele>
        <time>2016-04-17T13:27:43Z</time>
      </trkpt>
      <trkpt lat="44.5957" lon="-0.26706">
        <ele>28</ele>
        <time>2016-04-17T13:27:50Z</time>
      </trkpt>
      <trkpt lat="44.59571" lon="-0.26718">
        <ele>29</ele>
        <time>2016-04-17T13:27:58Z</time>
      </trkpt>
      <trkpt lat="44.59571" lon="-0.2673">
        <ele>29</ele>
        <time>2016-04-17T13:28:06Z</time>
      </trkpt>
      <trkpt lat="44.5957" lon="-0.26742">
        <ele>30</ele>
        <time>2016-04-17T13:28:14Z</time>
      </trkpt>
      <trkpt lat="44.59567" lon="-0.26753">
        <ele>31</ele>
        <time>2016-04-17T13:28:20Z</time>
      </trkpt>
      <trkpt lat="44.59565" lon="-0.26763">
        <ele>31</ele>
        <time>2016-04-17T13:28:26Z</time>
      </trkpt>
      <trkpt lat="44.59565" lon="-0.26774">
        <ele>32</ele>
        <time>2016-04-17T13:28:32Z</time>
      </trkpt>
      <trkpt lat="44.59564" lon="-0.26786">
        <ele>32</ele>
        <time>2016-04-17T13:28:38Z</time>
      </trkpt>
      <trkpt lat="44.59562" lon="-0.26799">
        <ele>33</ele>
        <time>2016-04-17T13:28:44Z</time>
      </trkpt>
      <trkpt lat="44.59561" lon="-0.2681">
        <ele>35</ele>
        <time>2016-04-17T13:28:51Z</time>
      </trkpt>
      <trkpt lat="44.5956" lon="-0.2682">
        <ele>36</ele>
        <time>2016-04-17T13:28:57Z</time>
      </trkpt>
      <trkpt lat="44.5956" lon="-0.26832">
        <ele>37</ele>
        <time>2016-04-17T13:29:03Z</time>
      </trkpt>
      <trkpt lat="44.59559" lon="-0.26844">
        <ele>38</ele>
        <time>2016-04-17T13:29:12Z</time>
      </trkpt>
      <trkpt lat="44.59558" lon="-0.26856">
        <ele>39</ele>
        <time>2016-04-17T13:29:21Z</time>
      </trkpt>
      <trkpt lat="44.59556" lon="-0.26868">
        <ele>40</ele>
        <time>2016-04-17T13:29:29Z</time>
      </trkpt>
      <trkpt lat="44.59556" lon="-0.2688">
        <ele>40</ele>
        <time>2016-04-17T13:29:36Z</time>
      </trkpt>
      <trkpt lat="44.59554" lon="-0.26891">
        <ele>40</ele>
        <time>2016-04-17T13:29:43Z</time>
      </trkpt>
      <trkpt lat="44.59554" lon="-0.26902">
        <ele>41</ele>
        <time>2016-04-17T13:29:50Z</time>
      </trkpt>
      <trkpt lat="44.59554" lon="-0.26915">
        <ele>42</ele>
        <time>2016-04-17T13:31:47Z</time>
      </trkpt>
      <trkpt lat="44.59551" lon="-0.26929">
        <ele>43</ele>
        <time>2016-04-17T13:31:52Z</time>
      </trkpt>
      <trkpt lat="44.59551" lon="-0.26929">
        <ele>43</ele>
        <time>2016-04-17T13:32:23Z</time>
      </trkpt>
      <trkpt lat="44.59539" lon="-0.26933">
        <ele>42</ele>
        <time>2016-04-17T13:32:27Z</time>
      </trkpt>
      <trkpt lat="44.59531" lon="-0.26936">
        <ele>41</ele>
        <time>2016-04-17T13:32:34Z</time>
      </trkpt>
      <trkpt lat="44.59523" lon="-0.2694">
        <ele>41</ele>
        <time>2016-04-17T13:32:41Z</time>
      </trkpt>
      <trkpt lat="44.59515" lon="-0.26943">
        <ele>41</ele>
        <time>2016-04-17T13:32:48Z</time>
      </trkpt>
      <trkpt lat="44.59508" lon="-0.26947">
        <ele>41</ele>
        <time>2016-04-17T13:32:53Z</time>
      </trkpt>
      <trkpt lat="44.59501" lon="-0.26953">
        <ele>40</ele>
        <time>2016-04-17T13:32:59Z</time>
      </trkpt>
      <trkpt lat="44.59493" lon="-0.26958">
        <ele>40</ele>
        <time>2016-04-17T13:33:06Z</time>
      </trkpt>
      <trkpt lat="44.59485" lon="-0.26956">
        <ele>40</ele>
        <time>2016-04-17T13:33:13Z</time>
      </trkpt>
      <trkpt lat="44.59477" lon="-0.26959">
        <ele>36</ele>
        <time>2016-04-17T13:33:28Z</time>
      </trkpt>
      <trkpt lat="44.5947" lon="-0.26965">
        <ele>36</ele>
        <time>2016-04-17T13:33:35Z</time>
      </trkpt>
      <trkpt lat="44.59462" lon="-0.2697">
        <ele>35</ele>
        <time>2016-04-17T13:33:41Z</time>
      </trkpt>
      <trkpt lat="44.59455" lon="-0.26977">
        <ele>35</ele>
        <time>2016-04-17T13:33:48Z</time>
      </trkpt>
      <trkpt lat="44.59451" lon="-0.26984">
        <ele>34</ele>
        <time>2016-04-17T13:34:11Z</time>
      </trkpt>
      <trkpt lat="44.59444" lon="-0.27">
        <ele>35</ele>
        <time>2016-04-17T13:34:15Z</time>
      </trkpt>
      <trkpt lat="44.59444" lon="-0.27">
        <ele>35</ele>
        <time>2016-04-17T13:34:27Z</time>
      </trkpt>
      <trkpt lat="44.59434" lon="-0.27009">
        <ele>35</ele>
        <time>2016-04-17T13:34:31Z</time>
      </trkpt>
      <trkpt lat="44.59426" lon="-0.27014">
        <ele>34</ele>
        <time>2016-04-17T13:34:37Z</time>
      </trkpt>
      <trkpt lat="44.59419" lon="-0.27016">
        <ele>34</ele>
        <time>2016-04-17T13:34:42Z</time>
      </trkpt>
      <trkpt lat="44.59412" lon="-0.2702">
        <ele>35</ele>
        <time>2016-04-17T13:34:47Z</time>
      </trkpt>
      <trkpt lat="44.59404" lon="-0.27025">
        <ele>35</ele>
        <time>2016-04-17T13:34:54Z</time>
      </trkpt>
      <trkpt lat="44.59397" lon="-0.27029">
        <ele>35</ele>
        <time>2016-04-17T13:35:00Z</time>
      </trkpt>
      <trkpt lat="44.5939" lon="-0.27033">
        <ele>35</ele>
        <time>2016-04-17T13:35:06Z</time>
      </trkpt>
      <trkpt lat="44.59382" lon="-0.27035">
        <ele>35</ele>
        <time>2016-04-17T13:35:13Z</time>
      </trkpt>
      <trkpt lat="44.59373" lon="-0.27039">
        <ele>35</ele>
        <time>2016-04-17T13:35:20Z</time>
      </trkpt>
      <trkpt lat="44.59365" lon="-0.27041">
        <ele>35</ele>
        <time>2016-04-17T13:35:27Z</time>
      </trkpt>
      <trkpt lat="44.59357" lon="-0.27045">
        <ele>35</ele>
        <time>2016-04-17T13:35:33Z</time>
      </trkpt>
      <trkpt lat="44.5935" lon="-0.2705">
        <ele>35</ele>
        <time>2016-04-17T13:35:38Z</time>
      </trkpt>
      <trkpt lat="44.59342" lon="-0.27055">
        <ele>35</ele>
        <time>2016-04-17T13:35:44Z</time>
      </trkpt>
      <trkpt lat="44.59337" lon="-0.27061">
        <ele>35</ele>
        <time>2016-04-17T13:35:52Z</time>
      </trkpt>
      <trkpt lat="44.59329" lon="-0.27068">
        <ele>34</ele>
        <time>2016-04-17T13:35:58Z</time>
      </trkpt>
      <trkpt lat="44.59328" lon="-0.27068">
        <ele>34</ele>
        <time>2016-04-17T13:36:06Z</time>
      </trkpt>
      <trkpt lat="44.59315" lon="-0.27072">
        <ele>34</ele>
        <time>2016-04-17T13:36:10Z</time>
      </trkpt>
      <trkpt lat="44.59307" lon="-0.27076">
        <ele>34</ele>
        <time>2016-04-17T13:36:14Z</time>
      </trkpt>
      <trkpt lat="44.59299" lon="-0.27078">
        <ele>34</ele>
        <time>2016-04-17T13:36:19Z</time>
      </trkpt>
      <trkpt lat="44.59291" lon="-0.27081">
        <ele>35</ele>
        <time>2016-04-17T13:36:25Z</time>
      </trkpt>
      <trkpt lat="44.59284" lon="-0.27084">
        <ele>36</ele>
        <time>2016-04-17T13:36:31Z</time>
      </trkpt>
      <trkpt lat="44.59276" lon="-0.27089">
        <ele>37</ele>
        <time>2016-04-17T13:36:37Z</time>
      </trkpt>
      <trkpt lat="44.5927" lon="-0.27096">
        <ele>38</ele>
        <time>2016-04-17T13:36:43Z</time>
      </trkpt>
      <trkpt lat="44.59267" lon="-0.27105">
        <ele>39</ele>
        <time>2016-04-17T13:36:53Z</time>
      </trkpt>
      <trkpt lat="44.5927" lon="-0.27117">
        <ele>40</ele>
        <time>2016-04-17T13:36:58Z</time>
      </trkpt>
      <trkpt lat="44.59272" lon="-0.27129">
        <ele>40</ele>
        <time>2016-04-17T13:37:06Z</time>
      </trkpt>
      <trkpt lat="44.59275" lon="-0.2714">
        <ele>41</ele>
        <time>2016-04-17T13:37:12Z</time>
      </trkpt>
      <trkpt lat="44.59279" lon="-0.2715">
        <ele>42</ele>
        <time>2016-04-17T13:37:20Z</time>
      </trkpt>
      <trkpt lat="44.59282" lon="-0.27163">
        <ele>42</ele>
        <time>2016-04-17T13:37:27Z</time>
      </trkpt>
      <trkpt lat="44.59285" lon="-0.27174">
        <ele>43</ele>
        <time>2016-04-17T13:37:34Z</time>
      </trkpt>
      <trkpt lat="44.59288" lon="-0.27185">
        <ele>43</ele>
        <time>2016-04-17T13:37:42Z</time>
      </trkpt>
      <trkpt lat="44.59293" lon="-0.27196">
        <ele>43</ele>
        <time>2016-04-17T13:37:51Z</time>
      </trkpt>
      <trkpt lat="44.59297" lon="-0.27206">
        <ele>43</ele>
        <time>2016-04-17T13:37:59Z</time>
      </trkpt>
      <trkpt lat="44.59303" lon="-0.27215">
        <ele>43</ele>
        <time>2016-04-17T13:38:06Z</time>
      </trkpt>
      <trkpt lat="44.59307" lon="-0.27227">
        <ele>43</ele>
        <time>2016-04-17T13:38:14Z</time>
      </trkpt>
      <trkpt lat="44.5931" lon="-0.27237">
        <ele>43</ele>
        <time>2016-04-17T13:38:20Z</time>
      </trkpt>
      <trkpt lat="44.59314" lon="-0.27247">
        <ele>43</ele>
        <time>2016-04-17T13:38:27Z</time>
      </trkpt>
      <trkpt lat="44.59319" lon="-0.27257">
        <ele>42</ele>
        <time>2016-04-17T13:38:34Z</time>
      </trkpt>
      <trkpt lat="44.59323" lon="-0.27266">
        <ele>42</ele>
        <time>2016-04-17T13:38:41Z</time>
      </trkpt>
      <trkpt lat="44.59327" lon="-0.27277">
        <ele>42</ele>
        <time>2016-04-17T13:38:48Z</time>
      </trkpt>
      <trkpt lat="44.59331" lon="-0.27286">
        <ele>42</ele>
        <time>2016-04-17T13:38:54Z</time>
      </trkpt>
      <trkpt lat="44.59335" lon="-0.27296">
        <ele>42</ele>
        <time>2016-04-17T13:39:01Z</time>
      </trkpt>
      <trkpt lat="44.59338" lon="-0.27304">
        <ele>43</ele>
        <time>2016-04-17T13:39:17Z</time>
      </trkpt>
      <trkpt lat="44.59344" lon="-0.27312">
        <ele>43</ele>
        <time>2016-04-17T13:39:22Z</time>
      </trkpt>
      <trkpt lat="44.59349" lon="-0.27322">
        <ele>43</ele>
        <time>2016-04-17T13:39:30Z</time>
      </trkpt>
      <trkpt lat="44.59355" lon="-0.27331">
        <ele>43</ele>
        <time>2016-04-17T13:39:37Z</time>
      </trkpt>
      <trkpt lat="44.5936" lon="-0.2734">
        <ele>43</ele>
        <time>2016-04-17T13:39:44Z</time>
      </trkpt>
      <trkpt lat="44.59364" lon="-0.27352">
        <ele>43</ele>
        <time>2016-04-17T13:39:51Z</time>
      </trkpt>
      <trkpt lat="44.59366" lon="-0.27363">
        <ele>43</ele>
        <time>2016-04-17T13:39:58Z</time>
      </trkpt>
      <trkpt lat="44.59368" lon="-0.27375">
        <ele>43</ele>
        <time>2016-04-17T13:40:06Z</time>
      </trkpt>
      <trkpt lat="44.59369" lon="-0.27387">
        <ele>43</ele>
        <time>2016-04-17T13:40:14Z</time>
      </trkpt>
      <trkpt lat="44.59371" lon="-0.27398">
        <ele>42</ele>
        <time>2016-04-17T13:40:23Z</time>
      </trkpt>
      <trkpt lat="44.59373" lon="-0.2741">
        <ele>42</ele>
        <time>2016-04-17T13:40:31Z</time>
      </trkpt>
      <trkpt lat="44.59375" lon="-0.27421">
        <ele>41</ele>
        <time>2016-04-17T13:40:41Z</time>
      </trkpt>
      <trkpt lat="44.59373" lon="-0.27431">
        <ele>40</ele>
        <time>2016-04-17T13:40:52Z</time>
      </trkpt>
      <trkpt lat="44.59371" lon="-0.27443">
        <ele>39</ele>
        <time>2016-04-17T13:40:56Z</time>
      </trkpt>
      <trkpt lat="44.59372" lon="-0.27456">
        <ele>38</ele>
        <time>2016-04-17T13:41:04Z</time>
      </trkpt>
      <trkpt lat="44.59371" lon="-0.27468">
        <ele>37</ele>
        <time>2016-04-17T13:41:12Z</time>
      </trkpt>
      <trkpt lat="44.59373" lon="-0.27479">
        <ele>38</ele>
        <time>2016-04-17T13:41:20Z</time>
      </trkpt>
      <trkpt lat="44.59376" lon="-0.27491">
        <ele>37</ele>
        <time>2016-04-17T13:41:27Z</time>
      </trkpt>
      <trkpt lat="44.59376" lon="-0.27502">
        <ele>37</ele>
        <time>2016-04-17T13:41:34Z</time>
      </trkpt>
      <trkpt lat="44.59375" lon="-0.27513">
        <ele>37</ele>
        <time>2016-04-17T13:41:41Z</time>
      </trkpt>
      <trkpt lat="44.59375" lon="-0.27524">
        <ele>36</ele>
        <time>2016-04-17T13:41:48Z</time>
      </trkpt>
      <trkpt lat="44.59374" lon="-0.27537">
        <ele>37</ele>
        <time>2016-04-17T13:42:14Z</time>
      </trkpt>
      <trkpt lat="44.5937" lon="-0.27551">
        <ele>36</ele>
        <time>2016-04-17T13:42:18Z</time>
      </trkpt>
      <trkpt lat="44.59368" lon="-0.27562">
        <ele>35</ele>
        <time>2016-04-17T13:42:26Z</time>
      </trkpt>
      <trkpt lat="44.59365" lon="-0.27572">
        <ele>34</ele>
        <time>2016-04-17T13:42:33Z</time>
      </trkpt>
      <trkpt lat="44.59362" lon="-0.27584">
        <ele>33</ele>
        <time>2016-04-17T13:42:40Z</time>
      </trkpt>
      <trkpt lat="44.59359" lon="-0.27595">
        <ele>32</ele>
        <time>2016-04-17T13:42:48Z</time>
      </trkpt>
      <trkpt lat="44.59357" lon="-0.27606">
        <ele>32</ele>
        <time>2016-04-17T13:42:55Z</time>
      </trkpt>
      <trkpt lat="44.59355" lon="-0.27618">
        <ele>31</ele>
        <time>2016-04-17T13:43:02Z</time>
      </trkpt>
      <trkpt lat="44.59352" lon="-0.2763">
        <ele>32</ele>
        <time>2016-04-17T13:43:09Z</time>
      </trkpt>
      <trkpt lat="44.5935" lon="-0.27642">
        <ele>31</ele>
        <time>2016-04-17T13:43:16Z</time>
      </trkpt>
      <trkpt lat="44.59348" lon="-0.27653">
        <ele>31</ele>
        <time>2016-04-17T13:43:23Z</time>
      </trkpt>
      <trkpt lat="44.59346" lon="-0.27665">
        <ele>31</ele>
        <time>2016-04-17T13:43:30Z</time>
      </trkpt>
      <trkpt lat="44.59344" lon="-0.27677">
        <ele>31</ele>
        <time>2016-04-17T13:43:37Z</time>
      </trkpt>
      <trkpt lat="44.59343" lon="-0.27689">
        <ele>32</ele>
        <time>2016-04-17T13:43:43Z</time>
      </trkpt>
      <trkpt lat="44.59342" lon="-0.277">
        <ele>32</ele>
        <time>2016-04-17T13:43:49Z</time>
      </trkpt>
      <trkpt lat="44.5934" lon="-0.2771">
        <ele>31</ele>
        <time>2016-04-17T13:43:56Z</time>
      </trkpt>
      <trkpt lat="44.5934" lon="-0.27722">
        <ele>32</ele>
        <time>2016-04-17T13:44:02Z</time>
      </trkpt>
      <trkpt lat="44.59339" lon="-0.27734">
        <ele>33</ele>
        <time>2016-04-17T13:46:39Z</time>
      </trkpt>
      <trkpt lat="44.59336" lon="-0.27753">
        <ele>32</ele>
        <time>2016-04-17T13:46:44Z</time>
      </trkpt>
      <trkpt lat="44.59336" lon="-0.27764">
        <ele>31</ele>
        <time>2016-04-17T13:46:51Z</time>
      </trkpt>
      <trkpt lat="44.59335" lon="-0.27775">
        <ele>30</ele>
        <time>2016-04-17T13:46:58Z</time>
      </trkpt>
      <trkpt lat="44.59334" lon="-0.27787">
        <ele>28</ele>
        <time>2016-04-17T13:47:06Z</time>
      </trkpt>
      <trkpt lat="44.5933" lon="-0.27799">
        <ele>27</ele>
        <time>2016-04-17T13:47:15Z</time>
      </trkpt>
      <trkpt lat="44.59329" lon="-0.2781">
        <ele>26</ele>
        <time>2016-04-17T13:47:23Z</time>
      </trkpt>
      <trkpt lat="44.59327" lon="-0.27822">
        <ele>25</ele>
        <time>2016-04-17T13:47:30Z</time>
      </trkpt>
      <trkpt lat="44.59327" lon="-0.27833">
        <ele>25</ele>
        <time>2016-04-17T13:47:36Z</time>
      </trkpt>
      <trkpt lat="44.59324" lon="-0.27845">
        <ele>24</ele>
        <time>2016-04-17T13:47:43Z</time>
      </trkpt>
      <trkpt lat="44.5932" lon="-0.27854">
        <ele>23</ele>
        <time>2016-04-17T13:47:50Z</time>
      </trkpt>
      <trkpt lat="44.59316" lon="-0.27865">
        <ele>22</ele>
        <time>2016-04-17T13:47:58Z</time>
      </trkpt>
      <trkpt lat="44.59312" lon="-0.27876">
        <ele>21</ele>
        <time>2016-04-17T13:48:05Z</time>
      </trkpt>
      <trkpt lat="44.59308" lon="-0.27886">
        <ele>21</ele>
        <time>2016-04-17T13:48:12Z</time>
      </trkpt>
      <trkpt lat="44.59305" lon="-0.27896">
        <ele>21</ele>
        <time>2016-04-17T13:48:27Z</time>
      </trkpt>
      <trkpt lat="44.59299" lon="-0.27911">
        <ele>19</ele>
        <time>2016-04-17T13:48:31Z</time>
      </trkpt>
      <trkpt lat="44.59293" lon="-0.2792">
        <ele>18</ele>
        <time>2016-04-17T13:48:39Z</time>
      </trkpt>
      <trkpt lat="44.59288" lon="-0.2793">
        <ele>17</ele>
        <time>2016-04-17T13:48:47Z</time>
      </trkpt>
      <trkpt lat="44.59285" lon="-0.27938">
        <ele>16</ele>
        <time>2016-04-17T13:48:53Z</time>
      </trkpt>
      <trkpt lat="44.59285" lon="-0.27947">
        <ele>17</ele>
        <time>2016-04-17T13:48:58Z</time>
      </trkpt>
      <trkpt lat="44.59281" lon="-0.27958">
        <ele>17</ele>
        <time>2016-04-17T13:49:05Z</time>
      </trkpt>
      <trkpt lat="44.59278" lon="-0.27969">
        <ele>16</ele>
        <time>2016-04-17T13:49:12Z</time>
      </trkpt>
      <trkpt lat="44.59281" lon="-0.2798">
        <ele>16</ele>
        <time>2016-04-17T13:49:19Z</time>
      </trkpt>
      <trkpt lat="44.59284" lon="-0.2799">
        <ele>15</ele>
        <time>2016-04-17T13:49:26Z</time>
      </trkpt>
      <trkpt lat="44.59288" lon="-0.28001">
        <ele>15</ele>
        <time>2016-04-17T13:49:33Z</time>
      </trkpt>
      <trkpt lat="44.59292" lon="-0.28009">
        <ele>15</ele>
        <time>2016-04-17T13:49:38Z</time>
      </trkpt>
      <trkpt lat="44.59296" lon="-0.2802">
        <ele>14</ele>
        <time>2016-04-17T13:49:44Z</time>
      </trkpt>
      <trkpt lat="44.59301" lon="-0.28029">
        <ele>15</ele>
        <time>2016-04-17T13:49:51Z</time>
      </trkpt>
      <trkpt lat="44.59307" lon="-0.28039">
        <ele>15</ele>
        <time>2016-04-17T13:49:59Z</time>
      </trkpt>
      <trkpt lat="44.59307" lon="-0.28054">
        <ele>16</ele>
        <time>2016-04-17T13:50:03Z</time>
      </trkpt>
      <trkpt lat="44.59313" lon="-0.28063">
        <ele>16</ele>
        <time>2016-04-17T13:50:10Z</time>
      </trkpt>
      <trkpt lat="44.59319" lon="-0.28072">
        <ele>15</ele>
        <time>2016-04-17T13:50:18Z</time>
      </trkpt>
      <trkpt lat="44.59321" lon="-0.28091">
        <ele>17</ele>
        <time>2016-04-17T13:50:23Z</time>
      </trkpt>
      <trkpt lat="44.59325" lon="-0.28101">
        <ele>17</ele>
        <time>2016-04-17T13:50:28Z</time>
      </trkpt>
      <trkpt lat="44.59329" lon="-0.2811">
        <ele>17</ele>
        <time>2016-04-17T13:50:34Z</time>
      </trkpt>
      <trkpt lat="44.59333" lon="-0.28121">
        <ele>17</ele>
        <time>2016-04-17T13:50:41Z</time>
      </trkpt>
      <trkpt lat="44.59338" lon="-0.2813">
        <ele>16</ele>
        <time>2016-04-17T13:50:47Z</time>
      </trkpt>
      <trkpt lat="44.59344" lon="-0.28135">
        <ele>16</ele>
        <time>2016-04-17T13:50:52Z</time>
      </trkpt>
      <trkpt lat="44.5935" lon="-0.28142">
        <ele>16</ele>
        <time>2016-04-17T13:50:58Z</time>
      </trkpt>
      <trkpt lat="44.59354" lon="-0.28152">
        <ele>15</ele>
        <time>2016-04-17T13:51:03Z</time>
      </trkpt>
      <trkpt lat="44.59359" lon="-0.28161">
        <ele>16</ele>
        <time>2016-04-17T13:51:09Z</time>
      </trkpt>
      <trkpt lat="44.5936" lon="-0.28173">
        <ele>16</ele>
        <time>2016-04-17T13:51:14Z</time>
      </trkpt>
      <trkpt lat="44.59365" lon="-0.28178">
        <ele>16</ele>
        <time>2016-04-17T13:51:26Z</time>
      </trkpt>
      <trkpt lat="44.59369" lon="-0.28195">
        <ele>17</ele>
        <time>2016-04-17T13:51:30Z</time>
      </trkpt>
      <trkpt lat="44.5937" lon="-0.28206">
        <ele>18</ele>
        <time>2016-04-17T13:51:37Z</time>
      </trkpt>
      <trkpt lat="44.59372" lon="-0.28217">
        <ele>19</ele>
        <time>2016-04-17T13:51:44Z</time>
      </trkpt>
      <trkpt lat="44.59369" lon="-0.28223">
        <ele>18</ele>
        <time>2016-04-17T13:51:57Z</time>
      </trkpt>
      <trkpt lat="44.59374" lon="-0.28243">
        <ele>21</ele>
        <time>2016-04-17T13:52:01Z</time>
      </trkpt>
      <trkpt lat="44.59374" lon="-0.28243">
        <ele>21</ele>
        <time>2016-04-17T13:53:10Z</time>
      </trkpt>
      <trkpt lat="44.59376" lon="-0.28262">
        <ele>21</ele>
        <time>2016-04-17T13:53:14Z</time>
      </trkpt>
      <trkpt lat="44.59376" lon="-0.28274">
        <ele>20</ele>
        <time>2016-04-17T13:53:22Z</time>
      </trkpt>
      <trkpt lat="44.59376" lon="-0.28276">
        <ele>20</ele>
        <time>2016-04-17T13:53:28Z</time>
      </trkpt>
      <trkpt lat="44.59376" lon="-0.28294">
        <ele>20</ele>
        <time>2016-04-17T13:53:32Z</time>
      </trkpt>
      <trkpt lat="44.59376" lon="-0.28294">
        <ele>20</ele>
        <time>2016-04-17T13:53:41Z</time>
      </trkpt>
      <trkpt lat="44.59376" lon="-0.28314">
        <ele>19</ele>
        <time>2016-04-17T13:53:46Z</time>
      </trkpt>
      <trkpt lat="44.59376" lon="-0.28314">
        <ele>19</ele>
        <time>2016-04-17T13:53:57Z</time>
      </trkpt>
      <trkpt lat="44.59373" lon="-0.2833">
        <ele>17</ele>
        <time>2016-04-17T13:54:01Z</time>
      </trkpt>
      <trkpt lat="44.59373" lon="-0.2833">
        <ele>17</ele>
        <time>2016-04-17T13:54:09Z</time>
      </trkpt>
      <trkpt lat="44.59375" lon="-0.28346">
        <ele>16</ele>
        <time>2016-04-17T13:54:13Z</time>
      </trkpt>
      <trkpt lat="44.59375" lon="-0.28346">
        <ele>16</ele>
        <time>2016-04-17T13:54:20Z</time>
      </trkpt>
      <trkpt lat="44.59382" lon="-0.2836">
        <ele>16</ele>
        <time>2016-04-17T13:54:24Z</time>
      </trkpt>
      <trkpt lat="44.59382" lon="-0.2836">
        <ele>16</ele>
        <time>2016-04-17T13:54:29Z</time>
      </trkpt>
      <trkpt lat="44.59391" lon="-0.28374">
        <ele>15</ele>
        <time>2016-04-17T13:54:33Z</time>
      </trkpt>
      <trkpt lat="44.59391" lon="-0.28374">
        <ele>15</ele>
        <time>2016-04-17T13:54:40Z</time>
      </trkpt>
      <trkpt lat="44.594" lon="-0.28392">
        <ele>15</ele>
        <time>2016-04-17T13:54:44Z</time>
      </trkpt>
      <trkpt lat="44.59402" lon="-0.28405">
        <ele>13</ele>
        <time>2016-04-17T13:54:53Z</time>
      </trkpt>
      <trkpt lat="44.59401" lon="-0.28408">
        <ele>12</ele>
        <time>2016-04-17T13:56:18Z</time>
      </trkpt>
      <trkpt lat="44.59394" lon="-0.28418">
        <ele>11</ele>
        <time>2016-04-17T13:56:22Z</time>
      </trkpt>
      <trkpt lat="44.59397" lon="-0.28419">
        <ele>10</ele>
        <time>2016-04-17T13:59:56Z</time>
      </trkpt>
      <trkpt lat="44.59404" lon="-0.28427">
        <ele>10</ele>
        <time>2016-04-17T14:01:26Z</time>
      </trkpt>
      <trkpt lat="44.594" lon="-0.28412">
        <ele>11</ele>
        <time>2016-04-17T14:01:30Z</time>
      </trkpt>
      <trkpt lat="44.594" lon="-0.28412">
        <ele>11</ele>
        <time>2016-04-17T14:01:41Z</time>
      </trkpt>
      <trkpt lat="44.59394" lon="-0.28398">
        <ele>11</ele>
        <time>2016-04-17T14:01:45Z</time>
      </trkpt>
      <trkpt lat="44.59394" lon="-0.28398">
        <ele>11</ele>
        <time>2016-04-17T14:01:51Z</time>
      </trkpt>
      <trkpt lat="44.59389" lon="-0.28381">
        <ele>11</ele>
        <time>2016-04-17T14:01:55Z</time>
      </trkpt>
      <trkpt lat="44.59389" lon="-0.28381">
        <ele>11</ele>
        <time>2016-04-17T14:02:01Z</time>
      </trkpt>
      <trkpt lat="44.59385" lon="-0.28368">
        <ele>11</ele>
        <time>2016-04-17T14:02:06Z</time>
      </trkpt>
      <trkpt lat="44.59385" lon="-0.28368">
        <ele>11</ele>
        <time>2016-04-17T14:02:12Z</time>
      </trkpt>
      <trkpt lat="44.59383" lon="-0.28351">
        <ele>12</ele>
        <time>2016-04-17T14:02:16Z</time>
      </trkpt>
      <trkpt lat="44.59383" lon="-0.28351">
        <ele>12</ele>
        <time>2016-04-17T14:02:23Z</time>
      </trkpt>
      <trkpt lat="44.59381" lon="-0.28334">
        <ele>14</ele>
        <time>2016-04-17T14:02:27Z</time>
      </trkpt>
      <trkpt lat="44.59381" lon="-0.28334">
        <ele>14</ele>
        <time>2016-04-17T14:02:32Z</time>
      </trkpt>
      <trkpt lat="44.5938" lon="-0.28316">
        <ele>15</ele>
        <time>2016-04-17T14:02:37Z</time>
      </trkpt>
      <trkpt lat="44.5938" lon="-0.28316">
        <ele>15</ele>
        <time>2016-04-17T14:02:48Z</time>
      </trkpt>
      <trkpt lat="44.59376" lon="-0.28293">
        <ele>17</ele>
        <time>2016-04-17T14:02:53Z</time>
      </trkpt>
      <trkpt lat="44.59376" lon="-0.28293">
        <ele>17</ele>
        <time>2016-04-17T14:03:03Z</time>
      </trkpt>
      <trkpt lat="44.59375" lon="-0.28276">
        <ele>18</ele>
        <time>2016-04-17T14:03:07Z</time>
      </trkpt>
      <trkpt lat="44.59375" lon="-0.28267">
        <ele>18</ele>
        <time>2016-04-17T14:03:12Z</time>
      </trkpt>
      <trkpt lat="44.59373" lon="-0.28252">
        <ele>18</ele>
        <time>2016-04-17T14:03:17Z</time>
      </trkpt>
      <trkpt lat="44.59373" lon="-0.28252">
        <ele>18</ele>
        <time>2016-04-17T14:03:18Z</time>
      </trkpt>
      <trkpt lat="44.59373" lon="-0.28252">
        <ele>18</ele>
        <time>2016-04-17T14:03:18Z</time>
      </trkpt>
    </trkseg>
  </trk>
</gpx>